<?xml version="1.0" encoding="UTF-8" standalone="no" ?>
<gpx xmlns="http://www.topografix.com/GPX/1/1" xmlns:xsi="http://www.w3.org/2001/XMLSchema-instance" xsi:schemaLocation="http://www.topografix.com/GPX/1/1 http://www.topografix.com/GPX/1/1/gpx.xsd" version="1.1" creator="VisuGPX - https://www.visugpx.com">
  <metadata>
    <name>20180327 Treffleant, Circuit de la chapelle de Bizole</name>
    <desc><![CDATA[Bizole]]></desc>
  </metadata>
  <trk>
    <name><![CDATA[20180327 Treffleant, Circuit de la chapelle de Bizole]]></name>
    <trkseg>
      <trkpt lat="47.67031" lon="-2.64866">
        <ele>51.236752</ele>
        <time>2018-03-27T07:49:07Z</time>
      </trkpt>
      <trkpt lat="47.67031" lon="-2.64866">
        <ele>51.236752</ele>
        <time>2018-03-27T07:49:08Z</time>
      </trkpt>
      <trkpt lat="47.67022" lon="-2.64868">
        <ele>51.5</ele>
        <time>2018-03-27T07:50:08Z</time>
      </trkpt>
      <trkpt lat="47.67031" lon="-2.64875">
        <ele>51.3</ele>
        <time>2018-03-27T07:51:51Z</time>
      </trkpt>
      <trkpt lat="47.67035" lon="-2.64887">
        <ele>51.5</ele>
        <time>2018-03-27T07:51:57Z</time>
      </trkpt>
      <trkpt lat="47.67035" lon="-2.64901">
        <ele>51.8</ele>
        <time>2018-03-27T07:52:07Z</time>
      </trkpt>
      <trkpt lat="47.67041" lon="-2.64912">
        <ele>52.5</ele>
        <time>2018-03-27T07:52:17Z</time>
      </trkpt>
      <trkpt lat="47.67048" lon="-2.64922">
        <ele>53.7</ele>
        <time>2018-03-27T07:52:27Z</time>
      </trkpt>
      <trkpt lat="47.67054" lon="-2.64931">
        <ele>54.6</ele>
        <time>2018-03-27T07:52:35Z</time>
      </trkpt>
      <trkpt lat="47.67058" lon="-2.64944">
        <ele>55.1</ele>
        <time>2018-03-27T07:52:43Z</time>
      </trkpt>
      <trkpt lat="47.67056" lon="-2.64931">
        <ele>56</ele>
        <time>2018-03-27T07:53:19Z</time>
      </trkpt>
      <trkpt lat="47.67054" lon="-2.64917">
        <ele>56.1</ele>
        <time>2018-03-27T07:53:32Z</time>
      </trkpt>
      <trkpt lat="47.67049" lon="-2.64906">
        <ele>56.2</ele>
        <time>2018-03-27T07:54:38Z</time>
      </trkpt>
      <trkpt lat="47.6704" lon="-2.64903">
        <ele>55.8</ele>
        <time>2018-03-27T07:54:51Z</time>
      </trkpt>
      <trkpt lat="47.67038" lon="-2.64888">
        <ele>55</ele>
        <time>2018-03-27T07:55:01Z</time>
      </trkpt>
      <trkpt lat="47.67041" lon="-2.64874">
        <ele>54.5</ele>
        <time>2018-03-27T07:55:10Z</time>
      </trkpt>
      <trkpt lat="47.67048" lon="-2.64864">
        <ele>54.5</ele>
        <time>2018-03-27T07:55:25Z</time>
      </trkpt>
      <trkpt lat="47.67055" lon="-2.64872">
        <ele>54.9</ele>
        <time>2018-03-27T07:55:34Z</time>
      </trkpt>
      <trkpt lat="47.67061" lon="-2.64884">
        <ele>55.6</ele>
        <time>2018-03-27T07:55:41Z</time>
      </trkpt>
      <trkpt lat="47.6706" lon="-2.64898">
        <ele>56.1</ele>
        <time>2018-03-27T07:55:50Z</time>
      </trkpt>
      <trkpt lat="47.67066" lon="-2.64908">
        <ele>56.4</ele>
        <time>2018-03-27T07:56:07Z</time>
      </trkpt>
      <trkpt lat="47.67061" lon="-2.64919">
        <ele>55.5</ele>
        <time>2018-03-27T07:57:00Z</time>
      </trkpt>
      <trkpt lat="47.67064" lon="-2.64931">
        <ele>55.7</ele>
        <time>2018-03-27T07:57:10Z</time>
      </trkpt>
      <trkpt lat="47.67069" lon="-2.64943">
        <ele>55.9</ele>
        <time>2018-03-27T07:57:21Z</time>
      </trkpt>
      <trkpt lat="47.67078" lon="-2.64952">
        <ele>57.3</ele>
        <time>2018-03-27T07:57:41Z</time>
      </trkpt>
      <trkpt lat="47.67087" lon="-2.64951">
        <ele>57.7</ele>
        <time>2018-03-27T07:57:47Z</time>
      </trkpt>
      <trkpt lat="47.67096" lon="-2.64951">
        <ele>58</ele>
        <time>2018-03-27T07:57:56Z</time>
      </trkpt>
      <trkpt lat="47.67105" lon="-2.64946">
        <ele>58.8</ele>
        <time>2018-03-27T07:58:05Z</time>
      </trkpt>
      <trkpt lat="47.67115" lon="-2.64943">
        <ele>59.2</ele>
        <time>2018-03-27T07:58:12Z</time>
      </trkpt>
      <trkpt lat="47.67125" lon="-2.6494">
        <ele>59.6</ele>
        <time>2018-03-27T07:58:21Z</time>
      </trkpt>
      <trkpt lat="47.67135" lon="-2.64938">
        <ele>59.5</ele>
        <time>2018-03-27T07:58:27Z</time>
      </trkpt>
      <trkpt lat="47.67144" lon="-2.64937">
        <ele>59.7</ele>
        <time>2018-03-27T07:58:34Z</time>
      </trkpt>
      <trkpt lat="47.67152" lon="-2.64931">
        <ele>60</ele>
        <time>2018-03-27T07:58:41Z</time>
      </trkpt>
      <trkpt lat="47.67162" lon="-2.64929">
        <ele>60.3</ele>
        <time>2018-03-27T07:58:48Z</time>
      </trkpt>
      <trkpt lat="47.67172" lon="-2.64926">
        <ele>61.1</ele>
        <time>2018-03-27T07:58:56Z</time>
      </trkpt>
      <trkpt lat="47.6718" lon="-2.64921">
        <ele>61.4</ele>
        <time>2018-03-27T07:59:03Z</time>
      </trkpt>
      <trkpt lat="47.67189" lon="-2.64924">
        <ele>62.1</ele>
        <time>2018-03-27T07:59:10Z</time>
      </trkpt>
      <trkpt lat="47.67198" lon="-2.64917">
        <ele>63.5</ele>
        <time>2018-03-27T07:59:21Z</time>
      </trkpt>
      <trkpt lat="47.67206" lon="-2.64911">
        <ele>64.1</ele>
        <time>2018-03-27T07:59:28Z</time>
      </trkpt>
      <trkpt lat="47.67214" lon="-2.64902">
        <ele>64.6</ele>
        <time>2018-03-27T07:59:36Z</time>
      </trkpt>
      <trkpt lat="47.67224" lon="-2.64898">
        <ele>65.7</ele>
        <time>2018-03-27T07:59:44Z</time>
      </trkpt>
      <trkpt lat="47.67233" lon="-2.64895">
        <ele>67.8</ele>
        <time>2018-03-27T07:59:55Z</time>
      </trkpt>
      <trkpt lat="47.67242" lon="-2.6489">
        <ele>69.2</ele>
        <time>2018-03-27T08:00:03Z</time>
      </trkpt>
      <trkpt lat="47.67252" lon="-2.64895">
        <ele>71</ele>
        <time>2018-03-27T08:00:12Z</time>
      </trkpt>
      <trkpt lat="47.67259" lon="-2.64904">
        <ele>71.8</ele>
        <time>2018-03-27T08:00:17Z</time>
      </trkpt>
      <trkpt lat="47.67265" lon="-2.64917">
        <ele>73.1</ele>
        <time>2018-03-27T08:00:58Z</time>
      </trkpt>
      <trkpt lat="47.67269" lon="-2.64929">
        <ele>73.1</ele>
        <time>2018-03-27T08:01:07Z</time>
      </trkpt>
      <trkpt lat="47.67272" lon="-2.64942">
        <ele>72.8</ele>
        <time>2018-03-27T08:01:15Z</time>
      </trkpt>
      <trkpt lat="47.67274" lon="-2.64956">
        <ele>72.6</ele>
        <time>2018-03-27T08:01:23Z</time>
      </trkpt>
      <trkpt lat="47.67273" lon="-2.64971">
        <ele>72.4</ele>
        <time>2018-03-27T08:01:31Z</time>
      </trkpt>
      <trkpt lat="47.67269" lon="-2.64984">
        <ele>72.4</ele>
        <time>2018-03-27T08:02:40Z</time>
      </trkpt>
      <trkpt lat="47.67274" lon="-2.64996">
        <ele>72.2</ele>
        <time>2018-03-27T08:02:51Z</time>
      </trkpt>
      <trkpt lat="47.67279" lon="-2.65007">
        <ele>72.3</ele>
        <time>2018-03-27T08:03:02Z</time>
      </trkpt>
      <trkpt lat="47.67287" lon="-2.64999">
        <ele>74.2</ele>
        <time>2018-03-27T08:03:13Z</time>
      </trkpt>
      <trkpt lat="47.67295" lon="-2.65007">
        <ele>76.3</ele>
        <time>2018-03-27T08:03:24Z</time>
      </trkpt>
      <trkpt lat="47.67298" lon="-2.65022">
        <ele>76.8</ele>
        <time>2018-03-27T08:03:31Z</time>
      </trkpt>
      <trkpt lat="47.67302" lon="-2.65035">
        <ele>76.9</ele>
        <time>2018-03-27T08:03:39Z</time>
      </trkpt>
      <trkpt lat="47.67305" lon="-2.65048">
        <ele>77.2</ele>
        <time>2018-03-27T08:03:47Z</time>
      </trkpt>
      <trkpt lat="47.67313" lon="-2.65058">
        <ele>78.1</ele>
        <time>2018-03-27T08:04:01Z</time>
      </trkpt>
      <trkpt lat="47.67321" lon="-2.65053">
        <ele>79.3</ele>
        <time>2018-03-27T08:04:11Z</time>
      </trkpt>
      <trkpt lat="47.6733" lon="-2.65047">
        <ele>80.6</ele>
        <time>2018-03-27T08:04:18Z</time>
      </trkpt>
      <trkpt lat="47.6734" lon="-2.65043">
        <ele>81.6</ele>
        <time>2018-03-27T08:04:25Z</time>
      </trkpt>
      <trkpt lat="47.6735" lon="-2.65038">
        <ele>82.6</ele>
        <time>2018-03-27T08:04:32Z</time>
      </trkpt>
      <trkpt lat="47.67359" lon="-2.65035">
        <ele>84.3</ele>
        <time>2018-03-27T08:04:41Z</time>
      </trkpt>
      <trkpt lat="47.67369" lon="-2.65031">
        <ele>85.8</ele>
        <time>2018-03-27T08:04:49Z</time>
      </trkpt>
      <trkpt lat="47.67379" lon="-2.65027">
        <ele>87.2</ele>
        <time>2018-03-27T08:04:58Z</time>
      </trkpt>
      <trkpt lat="47.67388" lon="-2.65024">
        <ele>88.3</ele>
        <time>2018-03-27T08:05:06Z</time>
      </trkpt>
      <trkpt lat="47.67391" lon="-2.65011">
        <ele>90.5</ele>
        <time>2018-03-27T08:05:16Z</time>
      </trkpt>
      <trkpt lat="47.67389" lon="-2.64997">
        <ele>91.4</ele>
        <time>2018-03-27T08:05:23Z</time>
      </trkpt>
      <trkpt lat="47.67388" lon="-2.64983">
        <ele>92.3</ele>
        <time>2018-03-27T08:05:32Z</time>
      </trkpt>
      <trkpt lat="47.67388" lon="-2.64969">
        <ele>92.2</ele>
        <time>2018-03-27T08:05:39Z</time>
      </trkpt>
      <trkpt lat="47.67386" lon="-2.64954">
        <ele>91.8</ele>
        <time>2018-03-27T08:05:48Z</time>
      </trkpt>
      <trkpt lat="47.67393" lon="-2.64946">
        <ele>91.5</ele>
        <time>2018-03-27T08:06:00Z</time>
      </trkpt>
      <trkpt lat="47.6739" lon="-2.64932">
        <ele>91.4</ele>
        <time>2018-03-27T08:06:10Z</time>
      </trkpt>
      <trkpt lat="47.67389" lon="-2.64919">
        <ele>91.3</ele>
        <time>2018-03-27T08:06:19Z</time>
      </trkpt>
      <trkpt lat="47.67388" lon="-2.64904">
        <ele>90.9</ele>
        <time>2018-03-27T08:06:28Z</time>
      </trkpt>
      <trkpt lat="47.67394" lon="-2.64894">
        <ele>90.2</ele>
        <time>2018-03-27T08:06:34Z</time>
      </trkpt>
      <trkpt lat="47.67403" lon="-2.64889">
        <ele>90.6</ele>
        <time>2018-03-27T08:06:48Z</time>
      </trkpt>
      <trkpt lat="47.67413" lon="-2.64893">
        <ele>91.6</ele>
        <time>2018-03-27T08:06:59Z</time>
      </trkpt>
      <trkpt lat="47.67421" lon="-2.64899">
        <ele>92.9</ele>
        <time>2018-03-27T08:07:10Z</time>
      </trkpt>
      <trkpt lat="47.67429" lon="-2.64906">
        <ele>94.4</ele>
        <time>2018-03-27T08:07:21Z</time>
      </trkpt>
      <trkpt lat="47.67438" lon="-2.6491">
        <ele>95.2</ele>
        <time>2018-03-27T08:07:28Z</time>
      </trkpt>
      <trkpt lat="47.67446" lon="-2.64915">
        <ele>96.5</ele>
        <time>2018-03-27T08:07:36Z</time>
      </trkpt>
      <trkpt lat="47.67457" lon="-2.6492">
        <ele>96.8</ele>
        <time>2018-03-27T08:07:44Z</time>
      </trkpt>
      <trkpt lat="47.67465" lon="-2.64926">
        <ele>96.8</ele>
        <time>2018-03-27T08:07:49Z</time>
      </trkpt>
      <trkpt lat="47.67474" lon="-2.64931">
        <ele>96.9</ele>
        <time>2018-03-27T08:07:54Z</time>
      </trkpt>
      <trkpt lat="47.67483" lon="-2.64936">
        <ele>97.2</ele>
        <time>2018-03-27T08:08:00Z</time>
      </trkpt>
      <trkpt lat="47.67492" lon="-2.64939">
        <ele>97.5</ele>
        <time>2018-03-27T08:08:06Z</time>
      </trkpt>
      <trkpt lat="47.67501" lon="-2.64943">
        <ele>97.8</ele>
        <time>2018-03-27T08:08:13Z</time>
      </trkpt>
      <trkpt lat="47.67511" lon="-2.64948">
        <ele>98</ele>
        <time>2018-03-27T08:08:21Z</time>
      </trkpt>
      <trkpt lat="47.6752" lon="-2.64953">
        <ele>98.4</ele>
        <time>2018-03-27T08:08:29Z</time>
      </trkpt>
      <trkpt lat="47.67528" lon="-2.64959">
        <ele>98.7</ele>
        <time>2018-03-27T08:08:36Z</time>
      </trkpt>
      <trkpt lat="47.67536" lon="-2.64969">
        <ele>98.7</ele>
        <time>2018-03-27T08:08:44Z</time>
      </trkpt>
      <trkpt lat="47.67544" lon="-2.64976">
        <ele>99.1</ele>
        <time>2018-03-27T08:08:51Z</time>
      </trkpt>
      <trkpt lat="47.67553" lon="-2.64985">
        <ele>99.5</ele>
        <time>2018-03-27T08:08:58Z</time>
      </trkpt>
      <trkpt lat="47.67561" lon="-2.64994">
        <ele>99.6</ele>
        <time>2018-03-27T08:09:06Z</time>
      </trkpt>
      <trkpt lat="47.67569" lon="-2.65">
        <ele>99.6</ele>
        <time>2018-03-27T08:09:11Z</time>
      </trkpt>
      <trkpt lat="47.67576" lon="-2.65008">
        <ele>99.9</ele>
        <time>2018-03-27T08:09:22Z</time>
      </trkpt>
      <trkpt lat="47.67584" lon="-2.65016">
        <ele>99.8</ele>
        <time>2018-03-27T08:09:28Z</time>
      </trkpt>
      <trkpt lat="47.67594" lon="-2.65021">
        <ele>99.7</ele>
        <time>2018-03-27T08:09:35Z</time>
      </trkpt>
      <trkpt lat="47.67602" lon="-2.65028">
        <ele>99.5</ele>
        <time>2018-03-27T08:09:43Z</time>
      </trkpt>
      <trkpt lat="47.67611" lon="-2.65037">
        <ele>98.8</ele>
        <time>2018-03-27T08:09:50Z</time>
      </trkpt>
      <trkpt lat="47.67619" lon="-2.65043">
        <ele>98.5</ele>
        <time>2018-03-27T08:09:56Z</time>
      </trkpt>
      <trkpt lat="47.67628" lon="-2.65048">
        <ele>98.3</ele>
        <time>2018-03-27T08:10:03Z</time>
      </trkpt>
      <trkpt lat="47.67636" lon="-2.65055">
        <ele>98.1</ele>
        <time>2018-03-27T08:10:11Z</time>
      </trkpt>
      <trkpt lat="47.67644" lon="-2.65061">
        <ele>97.9</ele>
        <time>2018-03-27T08:10:18Z</time>
      </trkpt>
      <trkpt lat="47.6765" lon="-2.65072">
        <ele>97.9</ele>
        <time>2018-03-27T08:10:24Z</time>
      </trkpt>
      <trkpt lat="47.67658" lon="-2.65078">
        <ele>97.9</ele>
        <time>2018-03-27T08:10:31Z</time>
      </trkpt>
      <trkpt lat="47.67667" lon="-2.65081">
        <ele>97.8</ele>
        <time>2018-03-27T08:10:41Z</time>
      </trkpt>
      <trkpt lat="47.67677" lon="-2.65083">
        <ele>97.9</ele>
        <time>2018-03-27T08:11:11Z</time>
      </trkpt>
      <trkpt lat="47.67686" lon="-2.65083">
        <ele>97.9</ele>
        <time>2018-03-27T08:11:20Z</time>
      </trkpt>
      <trkpt lat="47.67695" lon="-2.65083">
        <ele>98.1</ele>
        <time>2018-03-27T08:11:31Z</time>
      </trkpt>
      <trkpt lat="47.67706" lon="-2.65084">
        <ele>97.7</ele>
        <time>2018-03-27T08:11:40Z</time>
      </trkpt>
      <trkpt lat="47.67715" lon="-2.65084">
        <ele>97.8</ele>
        <time>2018-03-27T08:11:50Z</time>
      </trkpt>
      <trkpt lat="47.67724" lon="-2.65087">
        <ele>98</ele>
        <time>2018-03-27T08:11:57Z</time>
      </trkpt>
      <trkpt lat="47.67734" lon="-2.65089">
        <ele>98</ele>
        <time>2018-03-27T08:12:03Z</time>
      </trkpt>
      <trkpt lat="47.67744" lon="-2.65091">
        <ele>97.7</ele>
        <time>2018-03-27T08:12:10Z</time>
      </trkpt>
      <trkpt lat="47.67753" lon="-2.65092">
        <ele>97.6</ele>
        <time>2018-03-27T08:12:18Z</time>
      </trkpt>
      <trkpt lat="47.67763" lon="-2.65095">
        <ele>97.5</ele>
        <time>2018-03-27T08:12:26Z</time>
      </trkpt>
      <trkpt lat="47.67772" lon="-2.651">
        <ele>97.6</ele>
        <time>2018-03-27T08:12:34Z</time>
      </trkpt>
      <trkpt lat="47.67782" lon="-2.65105">
        <ele>97.6</ele>
        <time>2018-03-27T08:12:41Z</time>
      </trkpt>
      <trkpt lat="47.67792" lon="-2.65105">
        <ele>97.9</ele>
        <time>2018-03-27T08:12:50Z</time>
      </trkpt>
      <trkpt lat="47.67801" lon="-2.65106">
        <ele>98.1</ele>
        <time>2018-03-27T08:12:58Z</time>
      </trkpt>
      <trkpt lat="47.67811" lon="-2.65109">
        <ele>98.2</ele>
        <time>2018-03-27T08:13:07Z</time>
      </trkpt>
      <trkpt lat="47.6782" lon="-2.65111">
        <ele>98.6</ele>
        <time>2018-03-27T08:13:29Z</time>
      </trkpt>
      <trkpt lat="47.67824" lon="-2.65098">
        <ele>98.5</ele>
        <time>2018-03-27T08:13:51Z</time>
      </trkpt>
      <trkpt lat="47.67829" lon="-2.65084">
        <ele>98.7</ele>
        <time>2018-03-27T08:14:01Z</time>
      </trkpt>
      <trkpt lat="47.67832" lon="-2.6507">
        <ele>99.1</ele>
        <time>2018-03-27T08:14:10Z</time>
      </trkpt>
      <trkpt lat="47.67834" lon="-2.65057">
        <ele>99.5</ele>
        <time>2018-03-27T08:14:17Z</time>
      </trkpt>
      <trkpt lat="47.67837" lon="-2.65043">
        <ele>99.6</ele>
        <time>2018-03-27T08:14:25Z</time>
      </trkpt>
      <trkpt lat="47.67841" lon="-2.65029">
        <ele>99.4</ele>
        <time>2018-03-27T08:14:33Z</time>
      </trkpt>
      <trkpt lat="47.67844" lon="-2.65015">
        <ele>99</ele>
        <time>2018-03-27T08:14:40Z</time>
      </trkpt>
      <trkpt lat="47.67847" lon="-2.65003">
        <ele>98.5</ele>
        <time>2018-03-27T08:14:48Z</time>
      </trkpt>
      <trkpt lat="47.67852" lon="-2.6499">
        <ele>98.4</ele>
        <time>2018-03-27T08:14:56Z</time>
      </trkpt>
      <trkpt lat="47.67855" lon="-2.64976">
        <ele>98.4</ele>
        <time>2018-03-27T08:15:03Z</time>
      </trkpt>
      <trkpt lat="47.67861" lon="-2.64965">
        <ele>97.9</ele>
        <time>2018-03-27T08:15:10Z</time>
      </trkpt>
      <trkpt lat="47.67868" lon="-2.64957">
        <ele>98.3</ele>
        <time>2018-03-27T08:15:18Z</time>
      </trkpt>
      <trkpt lat="47.67871" lon="-2.64943">
        <ele>98.6</ele>
        <time>2018-03-27T08:15:28Z</time>
      </trkpt>
      <trkpt lat="47.6787" lon="-2.64928">
        <ele>98.3</ele>
        <time>2018-03-27T08:15:39Z</time>
      </trkpt>
      <trkpt lat="47.67871" lon="-2.64914">
        <ele>98.2</ele>
        <time>2018-03-27T08:15:49Z</time>
      </trkpt>
      <trkpt lat="47.67874" lon="-2.64901">
        <ele>98.1</ele>
        <time>2018-03-27T08:16:02Z</time>
      </trkpt>
      <trkpt lat="47.67875" lon="-2.64887">
        <ele>97.8</ele>
        <time>2018-03-27T08:16:16Z</time>
      </trkpt>
      <trkpt lat="47.67877" lon="-2.64874">
        <ele>97.5</ele>
        <time>2018-03-27T08:16:25Z</time>
      </trkpt>
      <trkpt lat="47.67879" lon="-2.64859">
        <ele>97</ele>
        <time>2018-03-27T08:16:34Z</time>
      </trkpt>
      <trkpt lat="47.6788" lon="-2.64846">
        <ele>96.2</ele>
        <time>2018-03-27T08:16:42Z</time>
      </trkpt>
      <trkpt lat="47.67883" lon="-2.64831">
        <ele>95.4</ele>
        <time>2018-03-27T08:16:50Z</time>
      </trkpt>
      <trkpt lat="47.67885" lon="-2.64817">
        <ele>94.2</ele>
        <time>2018-03-27T08:17:00Z</time>
      </trkpt>
      <trkpt lat="47.67888" lon="-2.64804">
        <ele>93.2</ele>
        <time>2018-03-27T08:17:08Z</time>
      </trkpt>
      <trkpt lat="47.67891" lon="-2.64791">
        <ele>92</ele>
        <time>2018-03-27T08:17:16Z</time>
      </trkpt>
      <trkpt lat="47.67893" lon="-2.64777">
        <ele>91.1</ele>
        <time>2018-03-27T08:17:24Z</time>
      </trkpt>
      <trkpt lat="47.67897" lon="-2.64764">
        <ele>90.4</ele>
        <time>2018-03-27T08:17:32Z</time>
      </trkpt>
      <trkpt lat="47.67901" lon="-2.64749">
        <ele>90.2</ele>
        <time>2018-03-27T08:17:39Z</time>
      </trkpt>
      <trkpt lat="47.67905" lon="-2.64735">
        <ele>89.4</ele>
        <time>2018-03-27T08:17:46Z</time>
      </trkpt>
      <trkpt lat="47.67908" lon="-2.64721">
        <ele>88.2</ele>
        <time>2018-03-27T08:17:54Z</time>
      </trkpt>
      <trkpt lat="47.67907" lon="-2.64707">
        <ele>87.6</ele>
        <time>2018-03-27T08:18:02Z</time>
      </trkpt>
      <trkpt lat="47.67909" lon="-2.64693">
        <ele>86.6</ele>
        <time>2018-03-27T08:18:10Z</time>
      </trkpt>
      <trkpt lat="47.67912" lon="-2.64679">
        <ele>86</ele>
        <time>2018-03-27T08:18:18Z</time>
      </trkpt>
      <trkpt lat="47.67913" lon="-2.64666">
        <ele>85.6</ele>
        <time>2018-03-27T08:18:25Z</time>
      </trkpt>
      <trkpt lat="47.67914" lon="-2.64651">
        <ele>84.8</ele>
        <time>2018-03-27T08:18:33Z</time>
      </trkpt>
      <trkpt lat="47.6791" lon="-2.64637">
        <ele>83.9</ele>
        <time>2018-03-27T08:18:42Z</time>
      </trkpt>
      <trkpt lat="47.67911" lon="-2.64624">
        <ele>82.9</ele>
        <time>2018-03-27T08:18:50Z</time>
      </trkpt>
      <trkpt lat="47.67908" lon="-2.64609">
        <ele>82.2</ele>
        <time>2018-03-27T08:18:58Z</time>
      </trkpt>
      <trkpt lat="47.67908" lon="-2.64595">
        <ele>81.7</ele>
        <time>2018-03-27T08:19:07Z</time>
      </trkpt>
      <trkpt lat="47.67906" lon="-2.6458">
        <ele>81.3</ele>
        <time>2018-03-27T08:19:14Z</time>
      </trkpt>
      <trkpt lat="47.67904" lon="-2.64566">
        <ele>81.3</ele>
        <time>2018-03-27T08:19:21Z</time>
      </trkpt>
      <trkpt lat="47.67901" lon="-2.64552">
        <ele>81.2</ele>
        <time>2018-03-27T08:19:29Z</time>
      </trkpt>
      <trkpt lat="47.67897" lon="-2.64541">
        <ele>80.5</ele>
        <time>2018-03-27T08:19:40Z</time>
      </trkpt>
      <trkpt lat="47.67893" lon="-2.64527">
        <ele>80.1</ele>
        <time>2018-03-27T08:19:50Z</time>
      </trkpt>
      <trkpt lat="47.67891" lon="-2.64513">
        <ele>80.1</ele>
        <time>2018-03-27T08:19:58Z</time>
      </trkpt>
      <trkpt lat="47.67891" lon="-2.64499">
        <ele>79.9</ele>
        <time>2018-03-27T08:20:07Z</time>
      </trkpt>
      <trkpt lat="47.6789" lon="-2.64484">
        <ele>80.1</ele>
        <time>2018-03-27T08:20:19Z</time>
      </trkpt>
      <trkpt lat="47.67886" lon="-2.64471">
        <ele>80.1</ele>
        <time>2018-03-27T08:20:34Z</time>
      </trkpt>
      <trkpt lat="47.6788" lon="-2.64459">
        <ele>80.2</ele>
        <time>2018-03-27T08:20:44Z</time>
      </trkpt>
      <trkpt lat="47.67876" lon="-2.64447">
        <ele>80.4</ele>
        <time>2018-03-27T08:20:57Z</time>
      </trkpt>
      <trkpt lat="47.6787" lon="-2.64437">
        <ele>80.4</ele>
        <time>2018-03-27T08:21:11Z</time>
      </trkpt>
      <trkpt lat="47.67862" lon="-2.64429">
        <ele>80.6</ele>
        <time>2018-03-27T08:21:26Z</time>
      </trkpt>
      <trkpt lat="47.67855" lon="-2.64419">
        <ele>80.7</ele>
        <time>2018-03-27T08:21:35Z</time>
      </trkpt>
      <trkpt lat="47.67849" lon="-2.64408">
        <ele>82</ele>
        <time>2018-03-27T08:21:45Z</time>
      </trkpt>
      <trkpt lat="47.67845" lon="-2.64396">
        <ele>83.3</ele>
        <time>2018-03-27T08:21:54Z</time>
      </trkpt>
      <trkpt lat="47.67836" lon="-2.64391">
        <ele>84.5</ele>
        <time>2018-03-27T08:22:04Z</time>
      </trkpt>
      <trkpt lat="47.6783" lon="-2.64381">
        <ele>85.3</ele>
        <time>2018-03-27T08:22:12Z</time>
      </trkpt>
      <trkpt lat="47.67825" lon="-2.64369">
        <ele>85.7</ele>
        <time>2018-03-27T08:22:20Z</time>
      </trkpt>
      <trkpt lat="47.67819" lon="-2.64357">
        <ele>86.5</ele>
        <time>2018-03-27T08:22:31Z</time>
      </trkpt>
      <trkpt lat="47.67811" lon="-2.64351">
        <ele>87.7</ele>
        <time>2018-03-27T08:22:41Z</time>
      </trkpt>
      <trkpt lat="47.67802" lon="-2.64347">
        <ele>89.2</ele>
        <time>2018-03-27T08:22:52Z</time>
      </trkpt>
      <trkpt lat="47.67795" lon="-2.64337">
        <ele>90.5</ele>
        <time>2018-03-27T08:23:01Z</time>
      </trkpt>
      <trkpt lat="47.6779" lon="-2.64325">
        <ele>91.4</ele>
        <time>2018-03-27T08:23:10Z</time>
      </trkpt>
      <trkpt lat="47.67786" lon="-2.64313">
        <ele>91.5</ele>
        <time>2018-03-27T08:23:18Z</time>
      </trkpt>
      <trkpt lat="47.67782" lon="-2.64299">
        <ele>92.1</ele>
        <time>2018-03-27T08:23:26Z</time>
      </trkpt>
      <trkpt lat="47.67779" lon="-2.64287">
        <ele>92.7</ele>
        <time>2018-03-27T08:23:33Z</time>
      </trkpt>
      <trkpt lat="47.67776" lon="-2.64272">
        <ele>93.2</ele>
        <time>2018-03-27T08:23:41Z</time>
      </trkpt>
      <trkpt lat="47.67773" lon="-2.64257">
        <ele>93.8</ele>
        <time>2018-03-27T08:23:50Z</time>
      </trkpt>
      <trkpt lat="47.67768" lon="-2.64246">
        <ele>94.3</ele>
        <time>2018-03-27T08:23:58Z</time>
      </trkpt>
      <trkpt lat="47.67763" lon="-2.64235">
        <ele>95</ele>
        <time>2018-03-27T08:24:06Z</time>
      </trkpt>
      <trkpt lat="47.67757" lon="-2.64225">
        <ele>96</ele>
        <time>2018-03-27T08:24:17Z</time>
      </trkpt>
      <trkpt lat="47.67751" lon="-2.64213">
        <ele>97</ele>
        <time>2018-03-27T08:24:27Z</time>
      </trkpt>
      <trkpt lat="47.67746" lon="-2.64202">
        <ele>97.4</ele>
        <time>2018-03-27T08:24:36Z</time>
      </trkpt>
      <trkpt lat="47.6774" lon="-2.64191">
        <ele>98.1</ele>
        <time>2018-03-27T08:24:45Z</time>
      </trkpt>
      <trkpt lat="47.67733" lon="-2.64179">
        <ele>98.9</ele>
        <time>2018-03-27T08:24:54Z</time>
      </trkpt>
      <trkpt lat="47.67727" lon="-2.6417">
        <ele>99.7</ele>
        <time>2018-03-27T08:25:02Z</time>
      </trkpt>
      <trkpt lat="47.6772" lon="-2.6416">
        <ele>100.9</ele>
        <time>2018-03-27T08:25:11Z</time>
      </trkpt>
      <trkpt lat="47.67714" lon="-2.6415">
        <ele>102</ele>
        <time>2018-03-27T08:25:20Z</time>
      </trkpt>
      <trkpt lat="47.67708" lon="-2.64139">
        <ele>102.6</ele>
        <time>2018-03-27T08:25:28Z</time>
      </trkpt>
      <trkpt lat="47.67703" lon="-2.64128">
        <ele>102.9</ele>
        <time>2018-03-27T08:25:35Z</time>
      </trkpt>
      <trkpt lat="47.67697" lon="-2.64117">
        <ele>103.4</ele>
        <time>2018-03-27T08:25:43Z</time>
      </trkpt>
      <trkpt lat="47.67692" lon="-2.64102">
        <ele>103.5</ele>
        <time>2018-03-27T08:25:51Z</time>
      </trkpt>
      <trkpt lat="47.67689" lon="-2.64089">
        <ele>104</ele>
        <time>2018-03-27T08:25:57Z</time>
      </trkpt>
      <trkpt lat="47.67685" lon="-2.64076">
        <ele>103.8</ele>
        <time>2018-03-27T08:26:04Z</time>
      </trkpt>
      <trkpt lat="47.67683" lon="-2.64062">
        <ele>103.8</ele>
        <time>2018-03-27T08:26:11Z</time>
      </trkpt>
      <trkpt lat="47.67678" lon="-2.6405">
        <ele>103.4</ele>
        <time>2018-03-27T08:26:20Z</time>
      </trkpt>
      <trkpt lat="47.67674" lon="-2.64037">
        <ele>103.1</ele>
        <time>2018-03-27T08:26:28Z</time>
      </trkpt>
      <trkpt lat="47.6767" lon="-2.64025">
        <ele>102.7</ele>
        <time>2018-03-27T08:26:36Z</time>
      </trkpt>
      <trkpt lat="47.67665" lon="-2.64014">
        <ele>102.2</ele>
        <time>2018-03-27T08:26:43Z</time>
      </trkpt>
      <trkpt lat="47.6766" lon="-2.64001">
        <ele>101</ele>
        <time>2018-03-27T08:26:51Z</time>
      </trkpt>
      <trkpt lat="47.67656" lon="-2.63988">
        <ele>100.2</ele>
        <time>2018-03-27T08:26:59Z</time>
      </trkpt>
      <trkpt lat="47.67648" lon="-2.6398">
        <ele>99.1</ele>
        <time>2018-03-27T08:27:08Z</time>
      </trkpt>
      <trkpt lat="47.67639" lon="-2.63978">
        <ele>99.3</ele>
        <time>2018-03-27T08:27:18Z</time>
      </trkpt>
      <trkpt lat="47.6763" lon="-2.63973">
        <ele>101.2</ele>
        <time>2018-03-27T08:27:29Z</time>
      </trkpt>
      <trkpt lat="47.6762" lon="-2.63971">
        <ele>103.4</ele>
        <time>2018-03-27T08:27:40Z</time>
      </trkpt>
      <trkpt lat="47.67611" lon="-2.63967">
        <ele>105.5</ele>
        <time>2018-03-27T08:27:51Z</time>
      </trkpt>
      <trkpt lat="47.67601" lon="-2.63965">
        <ele>107.2</ele>
        <time>2018-03-27T08:28:03Z</time>
      </trkpt>
      <trkpt lat="47.67592" lon="-2.6396">
        <ele>108.2</ele>
        <time>2018-03-27T08:28:14Z</time>
      </trkpt>
      <trkpt lat="47.67584" lon="-2.63953">
        <ele>108.7</ele>
        <time>2018-03-27T08:28:24Z</time>
      </trkpt>
      <trkpt lat="47.67575" lon="-2.63945">
        <ele>109.1</ele>
        <time>2018-03-27T08:28:33Z</time>
      </trkpt>
      <trkpt lat="47.67568" lon="-2.63936">
        <ele>110.4</ele>
        <time>2018-03-27T08:28:43Z</time>
      </trkpt>
      <trkpt lat="47.6756" lon="-2.63926">
        <ele>111.3</ele>
        <time>2018-03-27T08:28:51Z</time>
      </trkpt>
      <trkpt lat="47.67555" lon="-2.63914">
        <ele>111.4</ele>
        <time>2018-03-27T08:28:58Z</time>
      </trkpt>
      <trkpt lat="47.67551" lon="-2.63902">
        <ele>111.6</ele>
        <time>2018-03-27T08:29:08Z</time>
      </trkpt>
      <trkpt lat="47.67547" lon="-2.6389">
        <ele>111.5</ele>
        <time>2018-03-27T08:29:20Z</time>
      </trkpt>
      <trkpt lat="47.67543" lon="-2.63877">
        <ele>111.2</ele>
        <time>2018-03-27T08:29:29Z</time>
      </trkpt>
      <trkpt lat="47.6754" lon="-2.63863">
        <ele>110.8</ele>
        <time>2018-03-27T08:29:43Z</time>
      </trkpt>
      <trkpt lat="47.67536" lon="-2.6385">
        <ele>110.4</ele>
        <time>2018-03-27T08:29:52Z</time>
      </trkpt>
      <trkpt lat="47.67531" lon="-2.63838">
        <ele>110.1</ele>
        <time>2018-03-27T08:30:00Z</time>
      </trkpt>
      <trkpt lat="47.67526" lon="-2.63825">
        <ele>109.8</ele>
        <time>2018-03-27T08:30:08Z</time>
      </trkpt>
      <trkpt lat="47.67521" lon="-2.63813">
        <ele>109.4</ele>
        <time>2018-03-27T08:30:17Z</time>
      </trkpt>
      <trkpt lat="47.67516" lon="-2.63802">
        <ele>109.2</ele>
        <time>2018-03-27T08:30:26Z</time>
      </trkpt>
      <trkpt lat="47.67511" lon="-2.63791">
        <ele>109</ele>
        <time>2018-03-27T08:30:33Z</time>
      </trkpt>
      <trkpt lat="47.67506" lon="-2.6378">
        <ele>109.2</ele>
        <time>2018-03-27T08:30:41Z</time>
      </trkpt>
      <trkpt lat="47.675" lon="-2.63768">
        <ele>109.2</ele>
        <time>2018-03-27T08:30:50Z</time>
      </trkpt>
      <trkpt lat="47.67493" lon="-2.63758">
        <ele>108.7</ele>
        <time>2018-03-27T08:30:59Z</time>
      </trkpt>
      <trkpt lat="47.67486" lon="-2.63748">
        <ele>108.4</ele>
        <time>2018-03-27T08:31:08Z</time>
      </trkpt>
      <trkpt lat="47.6748" lon="-2.63738">
        <ele>107.6</ele>
        <time>2018-03-27T08:31:17Z</time>
      </trkpt>
      <trkpt lat="47.67472" lon="-2.63729">
        <ele>107</ele>
        <time>2018-03-27T08:31:27Z</time>
      </trkpt>
      <trkpt lat="47.67466" lon="-2.63719">
        <ele>106.6</ele>
        <time>2018-03-27T08:31:36Z</time>
      </trkpt>
      <trkpt lat="47.67458" lon="-2.6371">
        <ele>105.8</ele>
        <time>2018-03-27T08:31:44Z</time>
      </trkpt>
      <trkpt lat="47.67452" lon="-2.63699">
        <ele>105.7</ele>
        <time>2018-03-27T08:31:51Z</time>
      </trkpt>
      <trkpt lat="47.67446" lon="-2.63689">
        <ele>104.7</ele>
        <time>2018-03-27T08:31:59Z</time>
      </trkpt>
      <trkpt lat="47.67439" lon="-2.6368">
        <ele>104.3</ele>
        <time>2018-03-27T08:32:07Z</time>
      </trkpt>
      <trkpt lat="47.67432" lon="-2.63671">
        <ele>102.6</ele>
        <time>2018-03-27T08:32:17Z</time>
      </trkpt>
      <trkpt lat="47.67424" lon="-2.63662">
        <ele>101.9</ele>
        <time>2018-03-27T08:32:26Z</time>
      </trkpt>
      <trkpt lat="47.67416" lon="-2.63654">
        <ele>101</ele>
        <time>2018-03-27T08:32:35Z</time>
      </trkpt>
      <trkpt lat="47.67408" lon="-2.63646">
        <ele>100.5</ele>
        <time>2018-03-27T08:32:42Z</time>
      </trkpt>
      <trkpt lat="47.67401" lon="-2.63638">
        <ele>100</ele>
        <time>2018-03-27T08:32:50Z</time>
      </trkpt>
      <trkpt lat="47.67392" lon="-2.63631">
        <ele>100.3</ele>
        <time>2018-03-27T08:33:00Z</time>
      </trkpt>
      <trkpt lat="47.67383" lon="-2.63626">
        <ele>100.7</ele>
        <time>2018-03-27T08:33:09Z</time>
      </trkpt>
      <trkpt lat="47.67374" lon="-2.63623">
        <ele>100.4</ele>
        <time>2018-03-27T08:33:18Z</time>
      </trkpt>
      <trkpt lat="47.67366" lon="-2.63615">
        <ele>101</ele>
        <time>2018-03-27T08:33:30Z</time>
      </trkpt>
      <trkpt lat="47.67357" lon="-2.63611">
        <ele>100.9</ele>
        <time>2018-03-27T08:33:39Z</time>
      </trkpt>
      <trkpt lat="47.67347" lon="-2.63607">
        <ele>100.8</ele>
        <time>2018-03-27T08:33:47Z</time>
      </trkpt>
      <trkpt lat="47.67338" lon="-2.63603">
        <ele>100.5</ele>
        <time>2018-03-27T08:33:55Z</time>
      </trkpt>
      <trkpt lat="47.67329" lon="-2.636">
        <ele>100.2</ele>
        <time>2018-03-27T08:34:05Z</time>
      </trkpt>
      <trkpt lat="47.67323" lon="-2.63591">
        <ele>100.6</ele>
        <time>2018-03-27T08:35:08Z</time>
      </trkpt>
      <trkpt lat="47.67313" lon="-2.6359">
        <ele>100</ele>
        <time>2018-03-27T08:35:59Z</time>
      </trkpt>
      <trkpt lat="47.67304" lon="-2.63588">
        <ele>99.4</ele>
        <time>2018-03-27T08:36:08Z</time>
      </trkpt>
      <trkpt lat="47.67295" lon="-2.63582">
        <ele>98.8</ele>
        <time>2018-03-27T08:36:22Z</time>
      </trkpt>
      <trkpt lat="47.67284" lon="-2.63578">
        <ele>98</ele>
        <time>2018-03-27T08:36:34Z</time>
      </trkpt>
      <trkpt lat="47.67275" lon="-2.63574">
        <ele>97.7</ele>
        <time>2018-03-27T08:36:41Z</time>
      </trkpt>
      <trkpt lat="47.67265" lon="-2.6357">
        <ele>97.4</ele>
        <time>2018-03-27T08:36:47Z</time>
      </trkpt>
      <trkpt lat="47.67256" lon="-2.63564">
        <ele>96.7</ele>
        <time>2018-03-27T08:36:54Z</time>
      </trkpt>
      <trkpt lat="47.67246" lon="-2.63564">
        <ele>96</ele>
        <time>2018-03-27T08:37:03Z</time>
      </trkpt>
      <trkpt lat="47.67238" lon="-2.63557">
        <ele>95.2</ele>
        <time>2018-03-27T08:37:17Z</time>
      </trkpt>
      <trkpt lat="47.67229" lon="-2.63555">
        <ele>95.2</ele>
        <time>2018-03-27T08:37:28Z</time>
      </trkpt>
      <trkpt lat="47.67219" lon="-2.63553">
        <ele>95.6</ele>
        <time>2018-03-27T08:37:37Z</time>
      </trkpt>
      <trkpt lat="47.67209" lon="-2.63551">
        <ele>95.5</ele>
        <time>2018-03-27T08:37:47Z</time>
      </trkpt>
      <trkpt lat="47.67199" lon="-2.63548">
        <ele>95.9</ele>
        <time>2018-03-27T08:37:56Z</time>
      </trkpt>
      <trkpt lat="47.6719" lon="-2.63545">
        <ele>96.2</ele>
        <time>2018-03-27T08:38:04Z</time>
      </trkpt>
      <trkpt lat="47.67181" lon="-2.6354">
        <ele>96.4</ele>
        <time>2018-03-27T08:38:11Z</time>
      </trkpt>
      <trkpt lat="47.67172" lon="-2.63537">
        <ele>95.7</ele>
        <time>2018-03-27T08:38:19Z</time>
      </trkpt>
      <trkpt lat="47.67164" lon="-2.6353">
        <ele>95.8</ele>
        <time>2018-03-27T08:38:26Z</time>
      </trkpt>
      <trkpt lat="47.67155" lon="-2.63524">
        <ele>96.3</ele>
        <time>2018-03-27T08:38:34Z</time>
      </trkpt>
      <trkpt lat="47.67144" lon="-2.63521">
        <ele>95.4</ele>
        <time>2018-03-27T08:38:41Z</time>
      </trkpt>
      <trkpt lat="47.67135" lon="-2.63516">
        <ele>94.9</ele>
        <time>2018-03-27T08:38:48Z</time>
      </trkpt>
      <trkpt lat="47.67126" lon="-2.63512">
        <ele>93.9</ele>
        <time>2018-03-27T08:38:57Z</time>
      </trkpt>
      <trkpt lat="47.67117" lon="-2.63508">
        <ele>93.6</ele>
        <time>2018-03-27T08:39:03Z</time>
      </trkpt>
      <trkpt lat="47.67108" lon="-2.63504">
        <ele>92.7</ele>
        <time>2018-03-27T08:39:13Z</time>
      </trkpt>
      <trkpt lat="47.67097" lon="-2.635">
        <ele>93.1</ele>
        <time>2018-03-27T08:39:19Z</time>
      </trkpt>
      <trkpt lat="47.67088" lon="-2.63496">
        <ele>92.5</ele>
        <time>2018-03-27T08:39:29Z</time>
      </trkpt>
      <trkpt lat="47.6708" lon="-2.63486">
        <ele>92.6</ele>
        <time>2018-03-27T08:39:37Z</time>
      </trkpt>
      <trkpt lat="47.67075" lon="-2.63473">
        <ele>90.8</ele>
        <time>2018-03-27T08:39:46Z</time>
      </trkpt>
      <trkpt lat="47.67071" lon="-2.63461">
        <ele>90.8</ele>
        <time>2018-03-27T08:39:54Z</time>
      </trkpt>
      <trkpt lat="47.67067" lon="-2.63448">
        <ele>89.4</ele>
        <time>2018-03-27T08:40:02Z</time>
      </trkpt>
      <trkpt lat="47.67062" lon="-2.63436">
        <ele>88.5</ele>
        <time>2018-03-27T08:40:10Z</time>
      </trkpt>
      <trkpt lat="47.67055" lon="-2.63428">
        <ele>88.3</ele>
        <time>2018-03-27T08:40:17Z</time>
      </trkpt>
      <trkpt lat="47.6705" lon="-2.63417">
        <ele>86.6</ele>
        <time>2018-03-27T08:40:24Z</time>
      </trkpt>
      <trkpt lat="47.67045" lon="-2.63405">
        <ele>85.7</ele>
        <time>2018-03-27T08:40:33Z</time>
      </trkpt>
      <trkpt lat="47.67042" lon="-2.63392">
        <ele>85.3</ele>
        <time>2018-03-27T08:40:39Z</time>
      </trkpt>
      <trkpt lat="47.67039" lon="-2.63379">
        <ele>84.7</ele>
        <time>2018-03-27T08:40:47Z</time>
      </trkpt>
      <trkpt lat="47.67047" lon="-2.63372">
        <ele>83.6</ele>
        <time>2018-03-27T08:40:58Z</time>
      </trkpt>
      <trkpt lat="47.67056" lon="-2.63374">
        <ele>82.2</ele>
        <time>2018-03-27T08:41:10Z</time>
      </trkpt>
      <trkpt lat="47.67066" lon="-2.63379">
        <ele>80.7</ele>
        <time>2018-03-27T08:41:21Z</time>
      </trkpt>
      <trkpt lat="47.67077" lon="-2.63383">
        <ele>79.8</ele>
        <time>2018-03-27T08:41:27Z</time>
      </trkpt>
      <trkpt lat="47.67086" lon="-2.63388">
        <ele>79.2</ele>
        <time>2018-03-27T08:41:35Z</time>
      </trkpt>
      <trkpt lat="47.67094" lon="-2.63393">
        <ele>78.3</ele>
        <time>2018-03-27T08:41:43Z</time>
      </trkpt>
      <trkpt lat="47.67103" lon="-2.63399">
        <ele>77.5</ele>
        <time>2018-03-27T08:41:55Z</time>
      </trkpt>
      <trkpt lat="47.67113" lon="-2.63405">
        <ele>76.3</ele>
        <time>2018-03-27T08:42:05Z</time>
      </trkpt>
      <trkpt lat="47.67122" lon="-2.63405">
        <ele>75.8</ele>
        <time>2018-03-27T08:42:13Z</time>
      </trkpt>
      <trkpt lat="47.67131" lon="-2.63411">
        <ele>74.1</ele>
        <time>2018-03-27T08:42:26Z</time>
      </trkpt>
      <trkpt lat="47.67141" lon="-2.63409">
        <ele>73.8</ele>
        <time>2018-03-27T08:42:30Z</time>
      </trkpt>
      <trkpt lat="47.67153" lon="-2.63409">
        <ele>73.4</ele>
        <time>2018-03-27T08:42:34Z</time>
      </trkpt>
      <trkpt lat="47.67163" lon="-2.6341">
        <ele>72.2</ele>
        <time>2018-03-27T08:42:40Z</time>
      </trkpt>
      <trkpt lat="47.67172" lon="-2.63411">
        <ele>71.5</ele>
        <time>2018-03-27T08:42:48Z</time>
      </trkpt>
      <trkpt lat="47.67181" lon="-2.63412">
        <ele>70.9</ele>
        <time>2018-03-27T08:42:57Z</time>
      </trkpt>
      <trkpt lat="47.6719" lon="-2.63413">
        <ele>70.3</ele>
        <time>2018-03-27T08:43:05Z</time>
      </trkpt>
      <trkpt lat="47.672" lon="-2.63415">
        <ele>70.6</ele>
        <time>2018-03-27T08:43:13Z</time>
      </trkpt>
      <trkpt lat="47.67209" lon="-2.63421">
        <ele>70.5</ele>
        <time>2018-03-27T08:43:25Z</time>
      </trkpt>
      <trkpt lat="47.67218" lon="-2.63418">
        <ele>71.1</ele>
        <time>2018-03-27T08:43:37Z</time>
      </trkpt>
      <trkpt lat="47.67227" lon="-2.63425">
        <ele>71.1</ele>
        <time>2018-03-27T08:43:49Z</time>
      </trkpt>
      <trkpt lat="47.67235" lon="-2.63431">
        <ele>70.8</ele>
        <time>2018-03-27T08:43:57Z</time>
      </trkpt>
      <trkpt lat="47.67243" lon="-2.63438">
        <ele>70.8</ele>
        <time>2018-03-27T08:44:07Z</time>
      </trkpt>
      <trkpt lat="47.67253" lon="-2.63441">
        <ele>70.8</ele>
        <time>2018-03-27T08:44:13Z</time>
      </trkpt>
      <trkpt lat="47.67261" lon="-2.63448">
        <ele>70.9</ele>
        <time>2018-03-27T08:44:25Z</time>
      </trkpt>
      <trkpt lat="47.6727" lon="-2.63453">
        <ele>70.9</ele>
        <time>2018-03-27T08:44:32Z</time>
      </trkpt>
      <trkpt lat="47.6728" lon="-2.63455">
        <ele>71.3</ele>
        <time>2018-03-27T08:44:37Z</time>
      </trkpt>
      <trkpt lat="47.6729" lon="-2.6346">
        <ele>70.7</ele>
        <time>2018-03-27T08:44:44Z</time>
      </trkpt>
      <trkpt lat="47.67299" lon="-2.63463">
        <ele>70.7</ele>
        <time>2018-03-27T08:44:53Z</time>
      </trkpt>
      <trkpt lat="47.67308" lon="-2.63469">
        <ele>71.2</ele>
        <time>2018-03-27T08:45:02Z</time>
      </trkpt>
      <trkpt lat="47.67317" lon="-2.63474">
        <ele>71.2</ele>
        <time>2018-03-27T08:45:09Z</time>
      </trkpt>
      <trkpt lat="47.67328" lon="-2.63476">
        <ele>71.1</ele>
        <time>2018-03-27T08:45:17Z</time>
      </trkpt>
      <trkpt lat="47.67337" lon="-2.63482">
        <ele>71.4</ele>
        <time>2018-03-27T08:45:25Z</time>
      </trkpt>
      <trkpt lat="47.67346" lon="-2.63487">
        <ele>71.6</ele>
        <time>2018-03-27T08:45:33Z</time>
      </trkpt>
      <trkpt lat="47.67355" lon="-2.63492">
        <ele>71.7</ele>
        <time>2018-03-27T08:45:39Z</time>
      </trkpt>
      <trkpt lat="47.67364" lon="-2.63499">
        <ele>71.9</ele>
        <time>2018-03-27T08:45:50Z</time>
      </trkpt>
      <trkpt lat="47.67374" lon="-2.63496">
        <ele>71.7</ele>
        <time>2018-03-27T08:45:54Z</time>
      </trkpt>
      <trkpt lat="47.67382" lon="-2.63488">
        <ele>71.6</ele>
        <time>2018-03-27T08:45:58Z</time>
      </trkpt>
      <trkpt lat="47.67387" lon="-2.63475">
        <ele>70.8</ele>
        <time>2018-03-27T08:46:08Z</time>
      </trkpt>
      <trkpt lat="47.67393" lon="-2.63465">
        <ele>70.4</ele>
        <time>2018-03-27T08:46:32Z</time>
      </trkpt>
      <trkpt lat="47.67399" lon="-2.63455">
        <ele>71</ele>
        <time>2018-03-27T08:46:40Z</time>
      </trkpt>
      <trkpt lat="47.67404" lon="-2.63443">
        <ele>69.8</ele>
        <time>2018-03-27T08:46:49Z</time>
      </trkpt>
      <trkpt lat="47.67411" lon="-2.63434">
        <ele>70</ele>
        <time>2018-03-27T08:46:57Z</time>
      </trkpt>
      <trkpt lat="47.67416" lon="-2.63422">
        <ele>70.6</ele>
        <time>2018-03-27T08:47:06Z</time>
      </trkpt>
      <trkpt lat="47.67421" lon="-2.6341">
        <ele>70.8</ele>
        <time>2018-03-27T08:47:16Z</time>
      </trkpt>
      <trkpt lat="47.67425" lon="-2.63397">
        <ele>70.8</ele>
        <time>2018-03-27T08:47:28Z</time>
      </trkpt>
      <trkpt lat="47.67424" lon="-2.63384">
        <ele>70.9</ele>
        <time>2018-03-27T08:47:38Z</time>
      </trkpt>
      <trkpt lat="47.67417" lon="-2.63373">
        <ele>71.5</ele>
        <time>2018-03-27T08:47:49Z</time>
      </trkpt>
      <trkpt lat="47.67409" lon="-2.63365">
        <ele>73</ele>
        <time>2018-03-27T08:48:02Z</time>
      </trkpt>
      <trkpt lat="47.67399" lon="-2.63361">
        <ele>73.6</ele>
        <time>2018-03-27T08:48:11Z</time>
      </trkpt>
      <trkpt lat="47.6739" lon="-2.63357">
        <ele>74.2</ele>
        <time>2018-03-27T08:48:19Z</time>
      </trkpt>
      <trkpt lat="47.67382" lon="-2.63351">
        <ele>75</ele>
        <time>2018-03-27T08:48:27Z</time>
      </trkpt>
      <trkpt lat="47.67374" lon="-2.63345">
        <ele>75.8</ele>
        <time>2018-03-27T08:48:33Z</time>
      </trkpt>
      <trkpt lat="47.67367" lon="-2.63332">
        <ele>76</ele>
        <time>2018-03-27T08:48:42Z</time>
      </trkpt>
      <trkpt lat="47.67361" lon="-2.6332">
        <ele>76.6</ele>
        <time>2018-03-27T08:48:51Z</time>
      </trkpt>
      <trkpt lat="47.67356" lon="-2.63308">
        <ele>76.4</ele>
        <time>2018-03-27T08:49:08Z</time>
      </trkpt>
      <trkpt lat="47.67355" lon="-2.63294">
        <ele>77.2</ele>
        <time>2018-03-27T08:49:25Z</time>
      </trkpt>
      <trkpt lat="47.67348" lon="-2.63284">
        <ele>77.9</ele>
        <time>2018-03-27T08:49:54Z</time>
      </trkpt>
      <trkpt lat="47.67345" lon="-2.63271">
        <ele>78.3</ele>
        <time>2018-03-27T08:50:04Z</time>
      </trkpt>
      <trkpt lat="47.67341" lon="-2.63259">
        <ele>79.4</ele>
        <time>2018-03-27T08:50:13Z</time>
      </trkpt>
      <trkpt lat="47.67338" lon="-2.63246">
        <ele>79.6</ele>
        <time>2018-03-27T08:50:26Z</time>
      </trkpt>
      <trkpt lat="47.67347" lon="-2.63239">
        <ele>80</ele>
        <time>2018-03-27T08:51:07Z</time>
      </trkpt>
      <trkpt lat="47.67356" lon="-2.63232">
        <ele>79.8</ele>
        <time>2018-03-27T08:51:20Z</time>
      </trkpt>
      <trkpt lat="47.67362" lon="-2.63223">
        <ele>80</ele>
        <time>2018-03-27T08:51:34Z</time>
      </trkpt>
      <trkpt lat="47.67355" lon="-2.63232">
        <ele>80.2</ele>
        <time>2018-03-27T08:51:48Z</time>
      </trkpt>
      <trkpt lat="47.67346" lon="-2.63236">
        <ele>80.2</ele>
        <time>2018-03-27T08:51:57Z</time>
      </trkpt>
      <trkpt lat="47.67346" lon="-2.6325">
        <ele>79.5</ele>
        <time>2018-03-27T08:52:07Z</time>
      </trkpt>
      <trkpt lat="47.67348" lon="-2.63265">
        <ele>79.3</ele>
        <time>2018-03-27T08:52:15Z</time>
      </trkpt>
      <trkpt lat="47.67353" lon="-2.63276">
        <ele>77.7</ele>
        <time>2018-03-27T08:52:23Z</time>
      </trkpt>
      <trkpt lat="47.67355" lon="-2.6329">
        <ele>77.2</ele>
        <time>2018-03-27T08:52:32Z</time>
      </trkpt>
      <trkpt lat="47.67359" lon="-2.63302">
        <ele>77.3</ele>
        <time>2018-03-27T08:52:41Z</time>
      </trkpt>
      <trkpt lat="47.67356" lon="-2.63316">
        <ele>77</ele>
        <time>2018-03-27T08:52:49Z</time>
      </trkpt>
      <trkpt lat="47.67347" lon="-2.63316">
        <ele>76.6</ele>
        <time>2018-03-27T08:53:04Z</time>
      </trkpt>
      <trkpt lat="47.67337" lon="-2.63312">
        <ele>77.3</ele>
        <time>2018-03-27T08:53:14Z</time>
      </trkpt>
      <trkpt lat="47.67328" lon="-2.63304">
        <ele>77.9</ele>
        <time>2018-03-27T08:53:22Z</time>
      </trkpt>
      <trkpt lat="47.67323" lon="-2.63292">
        <ele>77.9</ele>
        <time>2018-03-27T08:53:29Z</time>
      </trkpt>
      <trkpt lat="47.67314" lon="-2.63286">
        <ele>77.8</ele>
        <time>2018-03-27T08:53:38Z</time>
      </trkpt>
      <trkpt lat="47.67307" lon="-2.63278">
        <ele>78</ele>
        <time>2018-03-27T08:53:46Z</time>
      </trkpt>
      <trkpt lat="47.67301" lon="-2.63269">
        <ele>78.4</ele>
        <time>2018-03-27T08:53:53Z</time>
      </trkpt>
      <trkpt lat="47.67296" lon="-2.63257">
        <ele>79</ele>
        <time>2018-03-27T08:54:01Z</time>
      </trkpt>
      <trkpt lat="47.67292" lon="-2.63244">
        <ele>78.6</ele>
        <time>2018-03-27T08:54:09Z</time>
      </trkpt>
      <trkpt lat="47.6729" lon="-2.63229">
        <ele>79.1</ele>
        <time>2018-03-27T08:54:17Z</time>
      </trkpt>
      <trkpt lat="47.67292" lon="-2.63216">
        <ele>80.5</ele>
        <time>2018-03-27T08:54:36Z</time>
      </trkpt>
      <trkpt lat="47.67292" lon="-2.63202">
        <ele>80.1</ele>
        <time>2018-03-27T08:54:52Z</time>
      </trkpt>
      <trkpt lat="47.67296" lon="-2.63189">
        <ele>80.5</ele>
        <time>2018-03-27T08:55:02Z</time>
      </trkpt>
      <trkpt lat="47.67305" lon="-2.63186">
        <ele>80.9</ele>
        <time>2018-03-27T08:55:15Z</time>
      </trkpt>
      <trkpt lat="47.67299" lon="-2.63175">
        <ele>80.8</ele>
        <time>2018-03-27T08:55:44Z</time>
      </trkpt>
      <trkpt lat="47.67304" lon="-2.63163">
        <ele>80.6</ele>
        <time>2018-03-27T08:55:53Z</time>
      </trkpt>
      <trkpt lat="47.67312" lon="-2.63154">
        <ele>80.7</ele>
        <time>2018-03-27T08:56:02Z</time>
      </trkpt>
      <trkpt lat="47.67304" lon="-2.63163">
        <ele>80.3</ele>
        <time>2018-03-27T08:56:57Z</time>
      </trkpt>
      <trkpt lat="47.67297" lon="-2.63174">
        <ele>80.2</ele>
        <time>2018-03-27T08:57:11Z</time>
      </trkpt>
      <trkpt lat="47.67294" lon="-2.63187">
        <ele>79.8</ele>
        <time>2018-03-27T08:57:22Z</time>
      </trkpt>
      <trkpt lat="47.67291" lon="-2.632">
        <ele>80.8</ele>
        <time>2018-03-27T08:57:32Z</time>
      </trkpt>
      <trkpt lat="47.67291" lon="-2.63215">
        <ele>80.1</ele>
        <time>2018-03-27T08:57:40Z</time>
      </trkpt>
      <trkpt lat="47.6729" lon="-2.63229">
        <ele>79.4</ele>
        <time>2018-03-27T08:57:47Z</time>
      </trkpt>
      <trkpt lat="47.67292" lon="-2.63243">
        <ele>79.5</ele>
        <time>2018-03-27T08:57:55Z</time>
      </trkpt>
      <trkpt lat="47.67296" lon="-2.63255">
        <ele>78.2</ele>
        <time>2018-03-27T08:58:05Z</time>
      </trkpt>
      <trkpt lat="47.67302" lon="-2.63266">
        <ele>78.9</ele>
        <time>2018-03-27T08:58:15Z</time>
      </trkpt>
      <trkpt lat="47.67309" lon="-2.63277">
        <ele>78.6</ele>
        <time>2018-03-27T08:58:24Z</time>
      </trkpt>
      <trkpt lat="47.67317" lon="-2.63284">
        <ele>78.3</ele>
        <time>2018-03-27T08:58:33Z</time>
      </trkpt>
      <trkpt lat="47.67326" lon="-2.63288">
        <ele>77.7</ele>
        <time>2018-03-27T08:58:42Z</time>
      </trkpt>
      <trkpt lat="47.67334" lon="-2.63294">
        <ele>77.7</ele>
        <time>2018-03-27T08:58:50Z</time>
      </trkpt>
      <trkpt lat="47.67343" lon="-2.633">
        <ele>76.3</ele>
        <time>2018-03-27T08:59:02Z</time>
      </trkpt>
      <trkpt lat="47.67352" lon="-2.63304">
        <ele>76.6</ele>
        <time>2018-03-27T08:59:11Z</time>
      </trkpt>
      <trkpt lat="47.67361" lon="-2.63306">
        <ele>76.9</ele>
        <time>2018-03-27T08:59:19Z</time>
      </trkpt>
      <trkpt lat="47.67371" lon="-2.63306">
        <ele>75.9</ele>
        <time>2018-03-27T08:59:28Z</time>
      </trkpt>
      <trkpt lat="47.6738" lon="-2.63306">
        <ele>76.7</ele>
        <time>2018-03-27T08:59:42Z</time>
      </trkpt>
      <trkpt lat="47.67371" lon="-2.6331">
        <ele>76.5</ele>
        <time>2018-03-27T08:59:59Z</time>
      </trkpt>
      <trkpt lat="47.67368" lon="-2.63323">
        <ele>75.6</ele>
        <time>2018-03-27T09:00:20Z</time>
      </trkpt>
      <trkpt lat="47.67373" lon="-2.63335">
        <ele>75.4</ele>
        <time>2018-03-27T09:00:28Z</time>
      </trkpt>
      <trkpt lat="47.67377" lon="-2.63348">
        <ele>75.1</ele>
        <time>2018-03-27T09:00:38Z</time>
      </trkpt>
      <trkpt lat="47.67384" lon="-2.63356">
        <ele>73.6</ele>
        <time>2018-03-27T09:00:49Z</time>
      </trkpt>
      <trkpt lat="47.67393" lon="-2.63364">
        <ele>72.7</ele>
        <time>2018-03-27T09:00:59Z</time>
      </trkpt>
      <trkpt lat="47.67399" lon="-2.63376">
        <ele>70.8</ele>
        <time>2018-03-27T09:01:09Z</time>
      </trkpt>
      <trkpt lat="47.67406" lon="-2.63386">
        <ele>69.7</ele>
        <time>2018-03-27T09:01:18Z</time>
      </trkpt>
      <trkpt lat="47.67415" lon="-2.6339">
        <ele>70.1</ele>
        <time>2018-03-27T09:01:24Z</time>
      </trkpt>
      <trkpt lat="47.67416" lon="-2.63405">
        <ele>69.8</ele>
        <time>2018-03-27T09:01:35Z</time>
      </trkpt>
      <trkpt lat="47.67412" lon="-2.63422">
        <ele>69.8</ele>
        <time>2018-03-27T09:01:42Z</time>
      </trkpt>
      <trkpt lat="47.67408" lon="-2.63438">
        <ele>69.3</ele>
        <time>2018-03-27T09:01:46Z</time>
      </trkpt>
      <trkpt lat="47.67404" lon="-2.6345">
        <ele>69.7</ele>
        <time>2018-03-27T09:01:55Z</time>
      </trkpt>
      <trkpt lat="47.674" lon="-2.63463">
        <ele>69.5</ele>
        <time>2018-03-27T09:02:02Z</time>
      </trkpt>
      <trkpt lat="47.67395" lon="-2.63477">
        <ele>69.5</ele>
        <time>2018-03-27T09:02:10Z</time>
      </trkpt>
      <trkpt lat="47.67391" lon="-2.63489">
        <ele>69.6</ele>
        <time>2018-03-27T09:02:16Z</time>
      </trkpt>
      <trkpt lat="47.67389" lon="-2.63503">
        <ele>69.5</ele>
        <time>2018-03-27T09:02:25Z</time>
      </trkpt>
      <trkpt lat="47.67381" lon="-2.63511">
        <ele>69.9</ele>
        <time>2018-03-27T09:02:40Z</time>
      </trkpt>
      <trkpt lat="47.67372" lon="-2.63504">
        <ele>71.3</ele>
        <time>2018-03-27T09:02:50Z</time>
      </trkpt>
      <trkpt lat="47.67364" lon="-2.63502">
        <ele>71.2</ele>
        <time>2018-03-27T09:03:00Z</time>
      </trkpt>
      <trkpt lat="47.67354" lon="-2.63497">
        <ele>71</ele>
        <time>2018-03-27T09:03:10Z</time>
      </trkpt>
      <trkpt lat="47.67346" lon="-2.63493">
        <ele>71</ele>
        <time>2018-03-27T09:03:18Z</time>
      </trkpt>
      <trkpt lat="47.67336" lon="-2.63488">
        <ele>71</ele>
        <time>2018-03-27T09:03:26Z</time>
      </trkpt>
      <trkpt lat="47.67326" lon="-2.6348">
        <ele>71</ele>
        <time>2018-03-27T09:03:33Z</time>
      </trkpt>
      <trkpt lat="47.67318" lon="-2.63476">
        <ele>70.6</ele>
        <time>2018-03-27T09:03:41Z</time>
      </trkpt>
      <trkpt lat="47.67308" lon="-2.63473">
        <ele>70.8</ele>
        <time>2018-03-27T09:03:50Z</time>
      </trkpt>
      <trkpt lat="47.67299" lon="-2.63469">
        <ele>70.3</ele>
        <time>2018-03-27T09:03:57Z</time>
      </trkpt>
      <trkpt lat="47.6729" lon="-2.63465">
        <ele>70.8</ele>
        <time>2018-03-27T09:04:04Z</time>
      </trkpt>
      <trkpt lat="47.67281" lon="-2.63458">
        <ele>70.2</ele>
        <time>2018-03-27T09:04:10Z</time>
      </trkpt>
      <trkpt lat="47.67272" lon="-2.63453">
        <ele>69.6</ele>
        <time>2018-03-27T09:04:17Z</time>
      </trkpt>
      <trkpt lat="47.67263" lon="-2.63451">
        <ele>69.3</ele>
        <time>2018-03-27T09:04:26Z</time>
      </trkpt>
      <trkpt lat="47.67253" lon="-2.63449">
        <ele>69.9</ele>
        <time>2018-03-27T09:04:34Z</time>
      </trkpt>
      <trkpt lat="47.67243" lon="-2.63446">
        <ele>69.8</ele>
        <time>2018-03-27T09:04:41Z</time>
      </trkpt>
      <trkpt lat="47.67234" lon="-2.63441">
        <ele>69.5</ele>
        <time>2018-03-27T09:04:50Z</time>
      </trkpt>
      <trkpt lat="47.67226" lon="-2.63432">
        <ele>69.2</ele>
        <time>2018-03-27T09:04:57Z</time>
      </trkpt>
      <trkpt lat="47.67216" lon="-2.63428">
        <ele>69</ele>
        <time>2018-03-27T09:05:05Z</time>
      </trkpt>
      <trkpt lat="47.67207" lon="-2.63427">
        <ele>69.6</ele>
        <time>2018-03-27T09:05:14Z</time>
      </trkpt>
      <trkpt lat="47.67196" lon="-2.63422">
        <ele>69</ele>
        <time>2018-03-27T09:05:22Z</time>
      </trkpt>
      <trkpt lat="47.67186" lon="-2.63421">
        <ele>69.6</ele>
        <time>2018-03-27T09:05:32Z</time>
      </trkpt>
      <trkpt lat="47.67177" lon="-2.63421">
        <ele>69.4</ele>
        <time>2018-03-27T09:05:38Z</time>
      </trkpt>
      <trkpt lat="47.67167" lon="-2.63422">
        <ele>69.9</ele>
        <time>2018-03-27T09:05:46Z</time>
      </trkpt>
      <trkpt lat="47.67158" lon="-2.63419">
        <ele>71.5</ele>
        <time>2018-03-27T09:05:56Z</time>
      </trkpt>
      <trkpt lat="47.67147" lon="-2.63415">
        <ele>72.5</ele>
        <time>2018-03-27T09:06:04Z</time>
      </trkpt>
      <trkpt lat="47.67138" lon="-2.63415">
        <ele>73.4</ele>
        <time>2018-03-27T09:06:13Z</time>
      </trkpt>
      <trkpt lat="47.67128" lon="-2.63416">
        <ele>74.8</ele>
        <time>2018-03-27T09:06:24Z</time>
      </trkpt>
      <trkpt lat="47.67119" lon="-2.63412">
        <ele>74.4</ele>
        <time>2018-03-27T09:07:03Z</time>
      </trkpt>
      <trkpt lat="47.6711" lon="-2.63406">
        <ele>76.4</ele>
        <time>2018-03-27T09:07:15Z</time>
      </trkpt>
      <trkpt lat="47.67101" lon="-2.63402">
        <ele>77</ele>
        <time>2018-03-27T09:07:22Z</time>
      </trkpt>
      <trkpt lat="47.67092" lon="-2.63398">
        <ele>77.7</ele>
        <time>2018-03-27T09:07:31Z</time>
      </trkpt>
      <trkpt lat="47.67083" lon="-2.63394">
        <ele>79</ele>
        <time>2018-03-27T09:07:41Z</time>
      </trkpt>
      <trkpt lat="47.67074" lon="-2.63388">
        <ele>79.7</ele>
        <time>2018-03-27T09:07:49Z</time>
      </trkpt>
      <trkpt lat="47.67066" lon="-2.63383">
        <ele>79.7</ele>
        <time>2018-03-27T09:07:58Z</time>
      </trkpt>
      <trkpt lat="47.67056" lon="-2.6338">
        <ele>81.1</ele>
        <time>2018-03-27T09:08:07Z</time>
      </trkpt>
      <trkpt lat="47.67046" lon="-2.63375">
        <ele>82</ele>
        <time>2018-03-27T09:08:15Z</time>
      </trkpt>
      <trkpt lat="47.67037" lon="-2.63377">
        <ele>82.2</ele>
        <time>2018-03-27T09:09:04Z</time>
      </trkpt>
      <trkpt lat="47.67041" lon="-2.6339">
        <ele>83.2</ele>
        <time>2018-03-27T09:09:27Z</time>
      </trkpt>
      <trkpt lat="47.67048" lon="-2.634">
        <ele>83.9</ele>
        <time>2018-03-27T09:09:38Z</time>
      </trkpt>
      <trkpt lat="47.67054" lon="-2.6341">
        <ele>84.4</ele>
        <time>2018-03-27T09:09:47Z</time>
      </trkpt>
      <trkpt lat="47.67059" lon="-2.63422">
        <ele>84.9</ele>
        <time>2018-03-27T09:09:56Z</time>
      </trkpt>
      <trkpt lat="47.67065" lon="-2.63431">
        <ele>85.9</ele>
        <time>2018-03-27T09:10:05Z</time>
      </trkpt>
      <trkpt lat="47.67071" lon="-2.63442">
        <ele>87.6</ele>
        <time>2018-03-27T09:10:14Z</time>
      </trkpt>
      <trkpt lat="47.67074" lon="-2.63455">
        <ele>87.9</ele>
        <time>2018-03-27T09:10:22Z</time>
      </trkpt>
      <trkpt lat="47.67076" lon="-2.6347">
        <ele>88.7</ele>
        <time>2018-03-27T09:10:30Z</time>
      </trkpt>
      <trkpt lat="47.67078" lon="-2.63484">
        <ele>89.4</ele>
        <time>2018-03-27T09:10:38Z</time>
      </trkpt>
      <trkpt lat="47.67083" lon="-2.63496">
        <ele>90.7</ele>
        <time>2018-03-27T09:10:50Z</time>
      </trkpt>
      <trkpt lat="47.67092" lon="-2.63499">
        <ele>90.5</ele>
        <time>2018-03-27T09:11:00Z</time>
      </trkpt>
      <trkpt lat="47.67102" lon="-2.63504">
        <ele>90.2</ele>
        <time>2018-03-27T09:11:10Z</time>
      </trkpt>
      <trkpt lat="47.67111" lon="-2.63508">
        <ele>90.5</ele>
        <time>2018-03-27T09:11:21Z</time>
      </trkpt>
      <trkpt lat="47.6712" lon="-2.63511">
        <ele>90.9</ele>
        <time>2018-03-27T09:11:28Z</time>
      </trkpt>
      <trkpt lat="47.67129" lon="-2.63516">
        <ele>91.6</ele>
        <time>2018-03-27T09:11:39Z</time>
      </trkpt>
      <trkpt lat="47.67138" lon="-2.63522">
        <ele>92.9</ele>
        <time>2018-03-27T09:11:49Z</time>
      </trkpt>
      <trkpt lat="47.67147" lon="-2.63525">
        <ele>93.3</ele>
        <time>2018-03-27T09:11:57Z</time>
      </trkpt>
      <trkpt lat="47.67157" lon="-2.6353">
        <ele>93.8</ele>
        <time>2018-03-27T09:12:07Z</time>
      </trkpt>
      <trkpt lat="47.67167" lon="-2.63534">
        <ele>93.4</ele>
        <time>2018-03-27T09:12:13Z</time>
      </trkpt>
      <trkpt lat="47.67177" lon="-2.63535">
        <ele>94.1</ele>
        <time>2018-03-27T09:12:20Z</time>
      </trkpt>
      <trkpt lat="47.67186" lon="-2.6354">
        <ele>93.7</ele>
        <time>2018-03-27T09:12:28Z</time>
      </trkpt>
      <trkpt lat="47.67195" lon="-2.63545">
        <ele>93.3</ele>
        <time>2018-03-27T09:12:37Z</time>
      </trkpt>
      <trkpt lat="47.67204" lon="-2.63548">
        <ele>93.5</ele>
        <time>2018-03-27T09:12:47Z</time>
      </trkpt>
      <trkpt lat="47.67215" lon="-2.63554">
        <ele>92</ele>
        <time>2018-03-27T09:12:59Z</time>
      </trkpt>
      <trkpt lat="47.67224" lon="-2.63557">
        <ele>92.9</ele>
        <time>2018-03-27T09:13:08Z</time>
      </trkpt>
      <trkpt lat="47.67233" lon="-2.63559">
        <ele>92.8</ele>
        <time>2018-03-27T09:13:15Z</time>
      </trkpt>
      <trkpt lat="47.67243" lon="-2.63562">
        <ele>93.2</ele>
        <time>2018-03-27T09:13:22Z</time>
      </trkpt>
      <trkpt lat="47.67252" lon="-2.63568">
        <ele>92.8</ele>
        <time>2018-03-27T09:13:31Z</time>
      </trkpt>
      <trkpt lat="47.67263" lon="-2.63573">
        <ele>93.2</ele>
        <time>2018-03-27T09:13:38Z</time>
      </trkpt>
      <trkpt lat="47.67271" lon="-2.63581">
        <ele>94.1</ele>
        <time>2018-03-27T09:13:46Z</time>
      </trkpt>
      <trkpt lat="47.67281" lon="-2.63585">
        <ele>95.4</ele>
        <time>2018-03-27T09:13:52Z</time>
      </trkpt>
      <trkpt lat="47.6729" lon="-2.63586">
        <ele>94.6</ele>
        <time>2018-03-27T09:13:59Z</time>
      </trkpt>
      <trkpt lat="47.67299" lon="-2.6359">
        <ele>96.7</ele>
        <time>2018-03-27T09:14:08Z</time>
      </trkpt>
      <trkpt lat="47.67309" lon="-2.63593">
        <ele>96.7</ele>
        <time>2018-03-27T09:14:15Z</time>
      </trkpt>
      <trkpt lat="47.67318" lon="-2.63596">
        <ele>97.4</ele>
        <time>2018-03-27T09:14:24Z</time>
      </trkpt>
      <trkpt lat="47.67328" lon="-2.63597">
        <ele>97.3</ele>
        <time>2018-03-27T09:14:31Z</time>
      </trkpt>
      <trkpt lat="47.67337" lon="-2.636">
        <ele>98.2</ele>
        <time>2018-03-27T09:14:40Z</time>
      </trkpt>
      <trkpt lat="47.67347" lon="-2.63603">
        <ele>97.5</ele>
        <time>2018-03-27T09:14:47Z</time>
      </trkpt>
      <trkpt lat="47.67356" lon="-2.63608">
        <ele>98</ele>
        <time>2018-03-27T09:14:56Z</time>
      </trkpt>
      <trkpt lat="47.67365" lon="-2.63616">
        <ele>98.1</ele>
        <time>2018-03-27T09:15:48Z</time>
      </trkpt>
      <trkpt lat="47.67375" lon="-2.63617">
        <ele>97.3</ele>
        <time>2018-03-27T09:15:56Z</time>
      </trkpt>
      <trkpt lat="47.67385" lon="-2.63621">
        <ele>97.7</ele>
        <time>2018-03-27T09:16:06Z</time>
      </trkpt>
      <trkpt lat="47.67395" lon="-2.63622">
        <ele>97.9</ele>
        <time>2018-03-27T09:16:12Z</time>
      </trkpt>
      <trkpt lat="47.67403" lon="-2.63628">
        <ele>97.7</ele>
        <time>2018-03-27T09:16:22Z</time>
      </trkpt>
      <trkpt lat="47.67414" lon="-2.63634">
        <ele>97.5</ele>
        <time>2018-03-27T09:16:30Z</time>
      </trkpt>
      <trkpt lat="47.67421" lon="-2.63643">
        <ele>98.1</ele>
        <time>2018-03-27T09:16:40Z</time>
      </trkpt>
      <trkpt lat="47.67427" lon="-2.63654">
        <ele>99.3</ele>
        <time>2018-03-27T09:16:51Z</time>
      </trkpt>
      <trkpt lat="47.67429" lon="-2.63668">
        <ele>100.3</ele>
        <time>2018-03-27T09:17:00Z</time>
      </trkpt>
      <trkpt lat="47.67438" lon="-2.63676">
        <ele>101</ele>
        <time>2018-03-27T09:17:06Z</time>
      </trkpt>
      <trkpt lat="47.67446" lon="-2.63684">
        <ele>101.7</ele>
        <time>2018-03-27T09:17:16Z</time>
      </trkpt>
      <trkpt lat="47.67453" lon="-2.63694">
        <ele>102.9</ele>
        <time>2018-03-27T09:17:25Z</time>
      </trkpt>
      <trkpt lat="47.67461" lon="-2.63703">
        <ele>103.4</ele>
        <time>2018-03-27T09:17:34Z</time>
      </trkpt>
      <trkpt lat="47.6747" lon="-2.63709">
        <ele>104.2</ele>
        <time>2018-03-27T09:17:46Z</time>
      </trkpt>
      <trkpt lat="47.67478" lon="-2.63715">
        <ele>104.2</ele>
        <time>2018-03-27T09:17:53Z</time>
      </trkpt>
      <trkpt lat="47.67486" lon="-2.63723">
        <ele>104.2</ele>
        <time>2018-03-27T09:18:00Z</time>
      </trkpt>
      <trkpt lat="47.67492" lon="-2.63734">
        <ele>104.7</ele>
        <time>2018-03-27T09:18:10Z</time>
      </trkpt>
      <trkpt lat="47.67499" lon="-2.63743">
        <ele>105</ele>
        <time>2018-03-27T09:18:18Z</time>
      </trkpt>
      <trkpt lat="47.67506" lon="-2.63753">
        <ele>104.4</ele>
        <time>2018-03-27T09:18:26Z</time>
      </trkpt>
      <trkpt lat="47.67513" lon="-2.63763">
        <ele>106.4</ele>
        <time>2018-03-27T09:18:34Z</time>
      </trkpt>
      <trkpt lat="47.6752" lon="-2.63773">
        <ele>105.6</ele>
        <time>2018-03-27T09:18:42Z</time>
      </trkpt>
      <trkpt lat="47.67526" lon="-2.63783">
        <ele>106.6</ele>
        <time>2018-03-27T09:18:50Z</time>
      </trkpt>
      <trkpt lat="47.67531" lon="-2.63794">
        <ele>106.3</ele>
        <time>2018-03-27T09:18:57Z</time>
      </trkpt>
      <trkpt lat="47.67537" lon="-2.63805">
        <ele>106.4</ele>
        <time>2018-03-27T09:19:04Z</time>
      </trkpt>
      <trkpt lat="47.67542" lon="-2.63817">
        <ele>106.8</ele>
        <time>2018-03-27T09:19:12Z</time>
      </trkpt>
      <trkpt lat="47.67545" lon="-2.6383">
        <ele>106.4</ele>
        <time>2018-03-27T09:19:19Z</time>
      </trkpt>
      <trkpt lat="47.67549" lon="-2.63843">
        <ele>107.7</ele>
        <time>2018-03-27T09:19:29Z</time>
      </trkpt>
      <trkpt lat="47.6755" lon="-2.63857">
        <ele>108.1</ele>
        <time>2018-03-27T09:19:45Z</time>
      </trkpt>
      <trkpt lat="47.67552" lon="-2.63871">
        <ele>107.4</ele>
        <time>2018-03-27T09:19:56Z</time>
      </trkpt>
      <trkpt lat="47.67547" lon="-2.63883">
        <ele>107.9</ele>
        <time>2018-03-27T09:20:13Z</time>
      </trkpt>
      <trkpt lat="47.67539" lon="-2.63892">
        <ele>108.3</ele>
        <time>2018-03-27T09:20:22Z</time>
      </trkpt>
      <trkpt lat="47.67531" lon="-2.639">
        <ele>109.3</ele>
        <time>2018-03-27T09:20:33Z</time>
      </trkpt>
      <trkpt lat="47.67522" lon="-2.63906">
        <ele>110</ele>
        <time>2018-03-27T09:20:45Z</time>
      </trkpt>
      <trkpt lat="47.67514" lon="-2.63914">
        <ele>111.3</ele>
        <time>2018-03-27T09:20:55Z</time>
      </trkpt>
      <trkpt lat="47.67506" lon="-2.6392">
        <ele>111.3</ele>
        <time>2018-03-27T09:21:04Z</time>
      </trkpt>
      <trkpt lat="47.67498" lon="-2.63927">
        <ele>111.2</ele>
        <time>2018-03-27T09:21:12Z</time>
      </trkpt>
      <trkpt lat="47.67489" lon="-2.63934">
        <ele>111.7</ele>
        <time>2018-03-27T09:21:20Z</time>
      </trkpt>
      <trkpt lat="47.67482" lon="-2.63943">
        <ele>111.7</ele>
        <time>2018-03-27T09:21:29Z</time>
      </trkpt>
      <trkpt lat="47.67473" lon="-2.63955">
        <ele>112.4</ele>
        <time>2018-03-27T09:21:42Z</time>
      </trkpt>
      <trkpt lat="47.67466" lon="-2.63964">
        <ele>111.9</ele>
        <time>2018-03-27T09:22:01Z</time>
      </trkpt>
      <trkpt lat="47.67458" lon="-2.6397">
        <ele>111.8</ele>
        <time>2018-03-27T09:22:24Z</time>
      </trkpt>
      <trkpt lat="47.67449" lon="-2.63979">
        <ele>112.2</ele>
        <time>2018-03-27T09:22:34Z</time>
      </trkpt>
      <trkpt lat="47.67441" lon="-2.63981">
        <ele>111.3</ele>
        <time>2018-03-27T09:23:26Z</time>
      </trkpt>
      <trkpt lat="47.67433" lon="-2.63988">
        <ele>111.1</ele>
        <time>2018-03-27T09:27:20Z</time>
      </trkpt>
      <trkpt lat="47.67427" lon="-2.63998">
        <ele>110.7</ele>
        <time>2018-03-27T09:27:30Z</time>
      </trkpt>
      <trkpt lat="47.67419" lon="-2.64007">
        <ele>110.2</ele>
        <time>2018-03-27T09:27:38Z</time>
      </trkpt>
      <trkpt lat="47.67412" lon="-2.64016">
        <ele>109.7</ele>
        <time>2018-03-27T09:27:48Z</time>
      </trkpt>
      <trkpt lat="47.67405" lon="-2.64025">
        <ele>108.9</ele>
        <time>2018-03-27T09:27:58Z</time>
      </trkpt>
      <trkpt lat="47.67396" lon="-2.64032">
        <ele>108.2</ele>
        <time>2018-03-27T09:28:06Z</time>
      </trkpt>
      <trkpt lat="47.67389" lon="-2.64041">
        <ele>107.7</ele>
        <time>2018-03-27T09:28:12Z</time>
      </trkpt>
      <trkpt lat="47.67381" lon="-2.64049">
        <ele>107.4</ele>
        <time>2018-03-27T09:28:19Z</time>
      </trkpt>
      <trkpt lat="47.67373" lon="-2.64059">
        <ele>107.3</ele>
        <time>2018-03-27T09:28:26Z</time>
      </trkpt>
      <trkpt lat="47.67365" lon="-2.64067">
        <ele>106.9</ele>
        <time>2018-03-27T09:28:33Z</time>
      </trkpt>
      <trkpt lat="47.67358" lon="-2.64076">
        <ele>106.3</ele>
        <time>2018-03-27T09:28:42Z</time>
      </trkpt>
      <trkpt lat="47.6735" lon="-2.64083">
        <ele>105.7</ele>
        <time>2018-03-27T09:28:53Z</time>
      </trkpt>
      <trkpt lat="47.67342" lon="-2.64092">
        <ele>105.5</ele>
        <time>2018-03-27T09:29:00Z</time>
      </trkpt>
      <trkpt lat="47.67334" lon="-2.641">
        <ele>105.1</ele>
        <time>2018-03-27T09:29:08Z</time>
      </trkpt>
      <trkpt lat="47.67326" lon="-2.64109">
        <ele>104.9</ele>
        <time>2018-03-27T09:29:16Z</time>
      </trkpt>
      <trkpt lat="47.6732" lon="-2.6412">
        <ele>105.1</ele>
        <time>2018-03-27T09:29:23Z</time>
      </trkpt>
      <trkpt lat="47.67313" lon="-2.6413">
        <ele>105.3</ele>
        <time>2018-03-27T09:29:29Z</time>
      </trkpt>
      <trkpt lat="47.67306" lon="-2.64138">
        <ele>105.6</ele>
        <time>2018-03-27T09:29:36Z</time>
      </trkpt>
      <trkpt lat="47.67299" lon="-2.64149">
        <ele>105.7</ele>
        <time>2018-03-27T09:29:44Z</time>
      </trkpt>
      <trkpt lat="47.6729" lon="-2.64157">
        <ele>105.9</ele>
        <time>2018-03-27T09:29:51Z</time>
      </trkpt>
      <trkpt lat="47.67282" lon="-2.64163">
        <ele>106</ele>
        <time>2018-03-27T09:29:59Z</time>
      </trkpt>
      <trkpt lat="47.67274" lon="-2.64171">
        <ele>105.9</ele>
        <time>2018-03-27T09:30:07Z</time>
      </trkpt>
      <trkpt lat="47.67265" lon="-2.64176">
        <ele>105.5</ele>
        <time>2018-03-27T09:30:15Z</time>
      </trkpt>
      <trkpt lat="47.67256" lon="-2.64181">
        <ele>104.9</ele>
        <time>2018-03-27T09:30:23Z</time>
      </trkpt>
      <trkpt lat="47.67247" lon="-2.64185">
        <ele>104</ele>
        <time>2018-03-27T09:30:32Z</time>
      </trkpt>
      <trkpt lat="47.67238" lon="-2.64193">
        <ele>103.2</ele>
        <time>2018-03-27T09:30:39Z</time>
      </trkpt>
      <trkpt lat="47.6723" lon="-2.642">
        <ele>102.5</ele>
        <time>2018-03-27T09:30:46Z</time>
      </trkpt>
      <trkpt lat="47.67221" lon="-2.64207">
        <ele>101.5</ele>
        <time>2018-03-27T09:30:53Z</time>
      </trkpt>
      <trkpt lat="47.67214" lon="-2.64214">
        <ele>100.5</ele>
        <time>2018-03-27T09:31:00Z</time>
      </trkpt>
      <trkpt lat="47.67205" lon="-2.64221">
        <ele>99</ele>
        <time>2018-03-27T09:31:08Z</time>
      </trkpt>
      <trkpt lat="47.67197" lon="-2.64228">
        <ele>97.1</ele>
        <time>2018-03-27T09:31:19Z</time>
      </trkpt>
      <trkpt lat="47.67189" lon="-2.64235">
        <ele>96.1</ele>
        <time>2018-03-27T09:31:29Z</time>
      </trkpt>
      <trkpt lat="47.6718" lon="-2.64241">
        <ele>94.4</ele>
        <time>2018-03-27T09:31:40Z</time>
      </trkpt>
      <trkpt lat="47.67173" lon="-2.6425">
        <ele>92.7</ele>
        <time>2018-03-27T09:31:49Z</time>
      </trkpt>
      <trkpt lat="47.67173" lon="-2.64263">
        <ele>91.3</ele>
        <time>2018-03-27T09:32:01Z</time>
      </trkpt>
      <trkpt lat="47.67174" lon="-2.64277">
        <ele>91.6</ele>
        <time>2018-03-27T09:32:14Z</time>
      </trkpt>
      <trkpt lat="47.67165" lon="-2.64282">
        <ele>91.7</ele>
        <time>2018-03-27T09:32:24Z</time>
      </trkpt>
      <trkpt lat="47.67157" lon="-2.64293">
        <ele>91.4</ele>
        <time>2018-03-27T09:32:32Z</time>
      </trkpt>
      <trkpt lat="47.67151" lon="-2.64303">
        <ele>91.4</ele>
        <time>2018-03-27T09:32:43Z</time>
      </trkpt>
      <trkpt lat="47.67159" lon="-2.6431">
        <ele>91.3</ele>
        <time>2018-03-27T09:33:28Z</time>
      </trkpt>
      <trkpt lat="47.67165" lon="-2.6432">
        <ele>91.3</ele>
        <time>2018-03-27T09:33:44Z</time>
      </trkpt>
      <trkpt lat="47.6717" lon="-2.64333">
        <ele>91</ele>
        <time>2018-03-27T09:33:55Z</time>
      </trkpt>
      <trkpt lat="47.67174" lon="-2.64347">
        <ele>91.4</ele>
        <time>2018-03-27T09:34:09Z</time>
      </trkpt>
      <trkpt lat="47.67179" lon="-2.64359">
        <ele>91.1</ele>
        <time>2018-03-27T09:34:17Z</time>
      </trkpt>
      <trkpt lat="47.67181" lon="-2.64372">
        <ele>91</ele>
        <time>2018-03-27T09:34:43Z</time>
      </trkpt>
      <trkpt lat="47.67186" lon="-2.64383">
        <ele>90.4</ele>
        <time>2018-03-27T09:34:52Z</time>
      </trkpt>
      <trkpt lat="47.67191" lon="-2.64395">
        <ele>90.2</ele>
        <time>2018-03-27T09:35:00Z</time>
      </trkpt>
      <trkpt lat="47.67196" lon="-2.64408">
        <ele>89.2</ele>
        <time>2018-03-27T09:35:11Z</time>
      </trkpt>
      <trkpt lat="47.67201" lon="-2.6442">
        <ele>88.7</ele>
        <time>2018-03-27T09:36:15Z</time>
      </trkpt>
      <trkpt lat="47.6721" lon="-2.64423">
        <ele>88.5</ele>
        <time>2018-03-27T09:37:28Z</time>
      </trkpt>
      <trkpt lat="47.67217" lon="-2.64414">
        <ele>88.7</ele>
        <time>2018-03-27T09:37:37Z</time>
      </trkpt>
      <trkpt lat="47.67225" lon="-2.6442">
        <ele>89</ele>
        <time>2018-03-27T09:37:48Z</time>
      </trkpt>
      <trkpt lat="47.67231" lon="-2.64432">
        <ele>88.7</ele>
        <time>2018-03-27T09:37:55Z</time>
      </trkpt>
      <trkpt lat="47.67236" lon="-2.64445">
        <ele>87.9</ele>
        <time>2018-03-27T09:38:03Z</time>
      </trkpt>
      <trkpt lat="47.67241" lon="-2.64457">
        <ele>87.2</ele>
        <time>2018-03-27T09:38:10Z</time>
      </trkpt>
      <trkpt lat="47.67246" lon="-2.64468">
        <ele>86.6</ele>
        <time>2018-03-27T09:38:22Z</time>
      </trkpt>
      <trkpt lat="47.6725" lon="-2.64481">
        <ele>85.7</ele>
        <time>2018-03-27T09:38:31Z</time>
      </trkpt>
      <trkpt lat="47.67254" lon="-2.64495">
        <ele>85.6</ele>
        <time>2018-03-27T09:38:39Z</time>
      </trkpt>
      <trkpt lat="47.67257" lon="-2.64508">
        <ele>84.7</ele>
        <time>2018-03-27T09:38:46Z</time>
      </trkpt>
      <trkpt lat="47.67258" lon="-2.64523">
        <ele>84.4</ele>
        <time>2018-03-27T09:38:53Z</time>
      </trkpt>
      <trkpt lat="47.6726" lon="-2.64538">
        <ele>83.6</ele>
        <time>2018-03-27T09:39:01Z</time>
      </trkpt>
      <trkpt lat="47.67262" lon="-2.64553">
        <ele>82.7</ele>
        <time>2018-03-27T09:39:09Z</time>
      </trkpt>
      <trkpt lat="47.67262" lon="-2.64567">
        <ele>82</ele>
        <time>2018-03-27T09:39:16Z</time>
      </trkpt>
      <trkpt lat="47.67257" lon="-2.64578">
        <ele>80.8</ele>
        <time>2018-03-27T09:39:23Z</time>
      </trkpt>
      <trkpt lat="47.67248" lon="-2.64586">
        <ele>80.3</ele>
        <time>2018-03-27T09:39:29Z</time>
      </trkpt>
      <trkpt lat="47.67239" lon="-2.64591">
        <ele>79.6</ele>
        <time>2018-03-27T09:39:36Z</time>
      </trkpt>
      <trkpt lat="47.67231" lon="-2.64598">
        <ele>78.4</ele>
        <time>2018-03-27T09:39:43Z</time>
      </trkpt>
      <trkpt lat="47.67222" lon="-2.64603">
        <ele>77.7</ele>
        <time>2018-03-27T09:39:50Z</time>
      </trkpt>
      <trkpt lat="47.67214" lon="-2.64609">
        <ele>76.6</ele>
        <time>2018-03-27T09:39:57Z</time>
      </trkpt>
      <trkpt lat="47.67205" lon="-2.64614">
        <ele>74.9</ele>
        <time>2018-03-27T09:40:04Z</time>
      </trkpt>
      <trkpt lat="47.67198" lon="-2.64623">
        <ele>73.5</ele>
        <time>2018-03-27T09:40:13Z</time>
      </trkpt>
      <trkpt lat="47.67189" lon="-2.6463">
        <ele>71.9</ele>
        <time>2018-03-27T09:40:21Z</time>
      </trkpt>
      <trkpt lat="47.67183" lon="-2.64642">
        <ele>70.7</ele>
        <time>2018-03-27T09:40:29Z</time>
      </trkpt>
      <trkpt lat="47.67175" lon="-2.64653">
        <ele>68.9</ele>
        <time>2018-03-27T09:40:37Z</time>
      </trkpt>
      <trkpt lat="47.67169" lon="-2.64662">
        <ele>66.9</ele>
        <time>2018-03-27T09:40:44Z</time>
      </trkpt>
      <trkpt lat="47.67161" lon="-2.6467">
        <ele>65.2</ele>
        <time>2018-03-27T09:40:52Z</time>
      </trkpt>
      <trkpt lat="47.67152" lon="-2.64676">
        <ele>63.9</ele>
        <time>2018-03-27T09:40:59Z</time>
      </trkpt>
      <trkpt lat="47.67142" lon="-2.6468">
        <ele>62.3</ele>
        <time>2018-03-27T09:41:06Z</time>
      </trkpt>
      <trkpt lat="47.67134" lon="-2.64684">
        <ele>61.4</ele>
        <time>2018-03-27T09:41:12Z</time>
      </trkpt>
      <trkpt lat="47.67124" lon="-2.64687">
        <ele>60.4</ele>
        <time>2018-03-27T09:41:18Z</time>
      </trkpt>
      <trkpt lat="47.67115" lon="-2.64689">
        <ele>60</ele>
        <time>2018-03-27T09:41:24Z</time>
      </trkpt>
      <trkpt lat="47.67105" lon="-2.6469">
        <ele>59.5</ele>
        <time>2018-03-27T09:41:32Z</time>
      </trkpt>
      <trkpt lat="47.67096" lon="-2.64687">
        <ele>58.8</ele>
        <time>2018-03-27T09:41:39Z</time>
      </trkpt>
      <trkpt lat="47.67087" lon="-2.64686">
        <ele>58.3</ele>
        <time>2018-03-27T09:41:46Z</time>
      </trkpt>
      <trkpt lat="47.67078" lon="-2.64689">
        <ele>57.7</ele>
        <time>2018-03-27T09:41:54Z</time>
      </trkpt>
      <trkpt lat="47.67069" lon="-2.64694">
        <ele>56.5</ele>
        <time>2018-03-27T09:42:02Z</time>
      </trkpt>
      <trkpt lat="47.67061" lon="-2.64702">
        <ele>55.9</ele>
        <time>2018-03-27T09:42:09Z</time>
      </trkpt>
      <trkpt lat="47.67053" lon="-2.64709">
        <ele>55.7</ele>
        <time>2018-03-27T09:42:16Z</time>
      </trkpt>
      <trkpt lat="47.67045" lon="-2.64716">
        <ele>55.4</ele>
        <time>2018-03-27T09:42:23Z</time>
      </trkpt>
      <trkpt lat="47.67036" lon="-2.64722">
        <ele>54.5</ele>
        <time>2018-03-27T09:42:31Z</time>
      </trkpt>
      <trkpt lat="47.67027" lon="-2.64728">
        <ele>54.4</ele>
        <time>2018-03-27T09:42:39Z</time>
      </trkpt>
      <trkpt lat="47.6702" lon="-2.64739">
        <ele>53.4</ele>
        <time>2018-03-27T09:42:47Z</time>
      </trkpt>
      <trkpt lat="47.67012" lon="-2.64747">
        <ele>52.6</ele>
        <time>2018-03-27T09:42:54Z</time>
      </trkpt>
      <trkpt lat="47.67002" lon="-2.64753">
        <ele>52</ele>
        <time>2018-03-27T09:43:03Z</time>
      </trkpt>
      <trkpt lat="47.66994" lon="-2.6476">
        <ele>51.6</ele>
        <time>2018-03-27T09:43:10Z</time>
      </trkpt>
      <trkpt lat="47.66986" lon="-2.64768">
        <ele>51.4</ele>
        <time>2018-03-27T09:43:17Z</time>
      </trkpt>
      <trkpt lat="47.66987" lon="-2.64782">
        <ele>50.1</ele>
        <time>2018-03-27T09:43:27Z</time>
      </trkpt>
      <trkpt lat="47.66993" lon="-2.64792">
        <ele>49.4</ele>
        <time>2018-03-27T09:43:34Z</time>
      </trkpt>
      <trkpt lat="47.67" lon="-2.64803">
        <ele>49.1</ele>
        <time>2018-03-27T09:43:41Z</time>
      </trkpt>
      <trkpt lat="47.67006" lon="-2.64813">
        <ele>48.3</ele>
        <time>2018-03-27T09:43:48Z</time>
      </trkpt>
      <trkpt lat="47.67012" lon="-2.64824">
        <ele>47.9</ele>
        <time>2018-03-27T09:43:55Z</time>
      </trkpt>
      <trkpt lat="47.67017" lon="-2.64834">
        <ele>47.6</ele>
        <time>2018-03-27T09:44:02Z</time>
      </trkpt>
      <trkpt lat="47.67022" lon="-2.64846">
        <ele>47.8</ele>
        <time>2018-03-27T09:44:09Z</time>
      </trkpt>
      <trkpt lat="47.67024" lon="-2.64861">
        <ele>47.4</ele>
        <time>2018-03-27T09:44:16Z</time>
      </trkpt>
      <trkpt lat="47.67029" lon="-2.64873">
        <ele>47.6</ele>
        <time>2018-03-27T09:44:23Z</time>
      </trkpt>
      <trkpt lat="47.67031" lon="-2.6488">
        <ele>45.2</ele>
        <time>2018-03-27T09:44:43Z</time>
      </trkpt>
    </trkseg>
  </trk>
</gpx>